<?xml version="1.0" encoding="UTF-8" standalone="no" ?>
<gpx xmlns="http://www.topografix.com/GPX/1/1" xmlns:xsi="http://www.w3.org/2001/XMLSchema-instance" xsi:schemaLocation="http://www.topografix.com/GPX/1/1 http://www.topografix.com/GPX/1/1/gpx.xsd" version="1.1" creator="VisuGPX - https://www.visugpx.com">
  <metadata>
    <name>Rando Esquerdes 23,3 Km 240 D+</name>
    <desc><![CDATA[randonnée pédestre niveau moyen]]></desc>
  </metadata>
  <wpt lat="50.70719" lon="2.18174">
    <ele>31.7</ele>
    <name><![CDATA[Parking de la m]]></name>
    <type><![CDATA[GENERIC]]></type>
  </wpt>
  <wpt lat="50.70447" lon="2.18122">
    <ele>41.9</ele>
    <name><![CDATA[Chapelle]]></name>
    <type><![CDATA[GENERIC]]></type>
  </wpt>
  <wpt lat="50.70128" lon="2.17415">
    <ele>72.7</ele>
    <name><![CDATA[Hangar Fauveaux]]></name>
    <type><![CDATA[GENERIC]]></type>
  </wpt>
  <wpt lat="50.68174" lon="2.15527">
    <ele>49.2</ele>
    <name><![CDATA[À droite, Rue d]]></name>
    <type><![CDATA[GENERIC]]></type>
  </wpt>
  <wpt lat="50.66914" lon="2.16301">
    <ele>52</ele>
    <name><![CDATA[Faire un virage]]></name>
    <type><![CDATA[GENERIC]]></type>
  </wpt>
  <wpt lat="50.69107" lon="2.1498">
    <ele>131.2</ele>
    <name><![CDATA[Danger ]]></name>
    <type><![CDATA[GENERIC]]></type>
  </wpt>
  <wpt lat="50.68576" lon="2.14535">
    <ele>48</ele>
    <name><![CDATA[prendre a droit]]></name>
    <type><![CDATA[GENERIC]]></type>
  </wpt>
  <wpt lat="50.69833" lon="2.17259">
    <ele>64.3</ele>
    <name><![CDATA[Point de passag]]></name>
    <type><![CDATA[GENERIC]]></type>
  </wpt>
  <wpt lat="50.67101" lon="2.17183">
    <ele>90.2</ele>
    <name><![CDATA[ À une patte d']]></name>
    <type><![CDATA[GENERIC]]></type>
  </wpt>
  <wpt lat="50.68117" lon="2.17583">
    <ele>127</ele>
    <name><![CDATA[À gauche à la p]]></name>
    <type><![CDATA[GENERIC]]></type>
  </wpt>
  <wpt lat="50.70721" lon="2.18173">
    <ele>31.8</ele>
    <name><![CDATA[Parking de la m]]></name>
    <type><![CDATA[GENERIC]]></type>
  </wpt>
  <wpt lat="50.68706" lon="2.17113">
    <ele>128.6</ele>
    <name><![CDATA[Virer à droite]]></name>
    <type><![CDATA[GENERIC]]></type>
  </wpt>
  <trk>
    <name><![CDATA[Copie de Rando Esquerdes 23,3 Km 240 D+]]></name>
    <trkseg>
      <trkpt lat="50.70561" lon="2.18273">
        <ele>34.03</ele>
        <time>2025-11-08T10:52:19.000Z</time>
      </trkpt>
      <trkpt lat="50.70561" lon="2.18273">
        <ele>34.44</ele>
        <time>2025-11-08T10:52:19.000Z</time>
      </trkpt>
      <trkpt lat="50.70564" lon="2.18274">
        <ele>34.86</ele>
        <time>2025-11-08T10:52:19.002Z</time>
      </trkpt>
      <trkpt lat="50.70564" lon="2.18274">
        <ele>35.81</ele>
        <time>2025-11-08T10:52:19.004Z</time>
      </trkpt>
      <trkpt lat="50.70544" lon="2.18265">
        <ele>36.55</ele>
        <time>2025-11-08T10:52:19.020Z</time>
      </trkpt>
      <trkpt lat="50.70529" lon="2.1825">
        <ele>37.4</ele>
        <time>2025-11-08T10:52:19.049Z</time>
      </trkpt>
      <trkpt lat="50.70505" lon="2.18227">
        <ele>38.33</ele>
        <time>2025-11-08T10:52:19.099Z</time>
      </trkpt>
      <trkpt lat="50.70481" lon="2.18203">
        <ele>39.25</ele>
        <time>2025-11-08T10:52:19.170Z</time>
      </trkpt>
      <trkpt lat="50.70457" lon="2.18179">
        <ele>40.11</ele>
        <time>2025-11-08T10:52:19.262Z</time>
      </trkpt>
      <trkpt lat="50.70446" lon="2.18134">
        <ele>40.94</ele>
        <time>2025-11-08T10:52:19.377Z</time>
      </trkpt>
      <trkpt lat="50.70435" lon="2.18124">
        <ele>41.67</ele>
        <time>2025-11-08T10:52:19.501Z</time>
      </trkpt>
      <trkpt lat="50.70438" lon="2.18095">
        <ele>42.26</ele>
        <time>2025-11-08T10:52:19.639Z</time>
      </trkpt>
      <trkpt lat="50.70441" lon="2.18066">
        <ele>42.73</ele>
        <time>2025-11-08T10:52:19.790Z</time>
      </trkpt>
      <trkpt lat="50.70441" lon="2.18039">
        <ele>43.04</ele>
        <time>2025-11-08T10:52:19.954Z</time>
      </trkpt>
      <trkpt lat="50.70441" lon="2.18012">
        <ele>43.21</ele>
        <time>2025-11-08T10:52:20.130Z</time>
      </trkpt>
      <trkpt lat="50.70435" lon="2.17988">
        <ele>43.3</ele>
        <time>2025-11-08T10:52:20.318Z</time>
      </trkpt>
      <trkpt lat="50.70424" lon="2.17961">
        <ele>43.3</ele>
        <time>2025-11-08T10:52:20.522Z</time>
      </trkpt>
      <trkpt lat="50.70414" lon="2.17933">
        <ele>43.23</ele>
        <time>2025-11-08T10:52:20.741Z</time>
      </trkpt>
      <trkpt lat="50.70409" lon="2.17922">
        <ele>43.16</ele>
        <time>2025-11-08T10:52:20.966Z</time>
      </trkpt>
      <trkpt lat="50.70419" lon="2.17892">
        <ele>42.87</ele>
        <time>2025-11-08T10:52:21.207Z</time>
      </trkpt>
      <trkpt lat="50.70429" lon="2.17862">
        <ele>42.61</ele>
        <time>2025-11-08T10:52:21.463Z</time>
      </trkpt>
      <trkpt lat="50.70439" lon="2.17832">
        <ele>42.44</ele>
        <time>2025-11-08T10:52:21.735Z</time>
      </trkpt>
      <trkpt lat="50.70451" lon="2.17806">
        <ele>42.3</ele>
        <time>2025-11-08T10:52:22.022Z</time>
      </trkpt>
      <trkpt lat="50.70451" lon="2.17807">
        <ele>42.13</ele>
        <time>2025-11-08T10:52:22.309Z</time>
      </trkpt>
      <trkpt lat="50.70451" lon="2.17807">
        <ele>41.98</ele>
        <time>2025-11-08T10:52:22.596Z</time>
      </trkpt>
      <trkpt lat="50.70469" lon="2.17768">
        <ele>41.82</ele>
        <time>2025-11-08T10:52:22.905Z</time>
      </trkpt>
      <trkpt lat="50.70487" lon="2.17729">
        <ele>41.71</ele>
        <time>2025-11-08T10:52:23.237Z</time>
      </trkpt>
      <trkpt lat="50.70505" lon="2.1769">
        <ele>41.56</ele>
        <time>2025-11-08T10:52:23.591Z</time>
      </trkpt>
      <trkpt lat="50.70523" lon="2.17652">
        <ele>41.38</ele>
        <time>2025-11-08T10:52:23.967Z</time>
      </trkpt>
      <trkpt lat="50.70532" lon="2.17619">
        <ele>41.23</ele>
        <time>2025-11-08T10:52:24.360Z</time>
      </trkpt>
      <trkpt lat="50.70536" lon="2.17588">
        <ele>41.1</ele>
        <time>2025-11-08T10:52:24.768Z</time>
      </trkpt>
      <trkpt lat="50.7054" lon="2.17557">
        <ele>41.02</ele>
        <time>2025-11-08T10:52:25.190Z</time>
      </trkpt>
      <trkpt lat="50.7054" lon="2.17557">
        <ele>40.94</ele>
        <time>2025-11-08T10:52:25.612Z</time>
      </trkpt>
      <trkpt lat="50.70546" lon="2.17521">
        <ele>40.94</ele>
        <time>2025-11-08T10:52:26.052Z</time>
      </trkpt>
      <trkpt lat="50.70551" lon="2.17484">
        <ele>40.96</ele>
        <time>2025-11-08T10:52:26.509Z</time>
      </trkpt>
      <trkpt lat="50.70555" lon="2.1744">
        <ele>41</ele>
        <time>2025-11-08T10:52:26.987Z</time>
      </trkpt>
      <trkpt lat="50.70559" lon="2.17396">
        <ele>41</ele>
        <time>2025-11-08T10:52:27.486Z</time>
      </trkpt>
      <trkpt lat="50.70563" lon="2.17353">
        <ele>41.08</ele>
        <time>2025-11-08T10:52:28.005Z</time>
      </trkpt>
      <trkpt lat="50.70566" lon="2.17309">
        <ele>41.11</ele>
        <time>2025-11-08T10:52:28.545Z</time>
      </trkpt>
      <trkpt lat="50.7057" lon="2.17265">
        <ele>40.96</ele>
        <time>2025-11-08T10:52:29.105Z</time>
      </trkpt>
      <trkpt lat="50.70571" lon="2.17226">
        <ele>40.76</ele>
        <time>2025-11-08T10:52:29.684Z</time>
      </trkpt>
      <trkpt lat="50.70572" lon="2.17186">
        <ele>40.56</ele>
        <time>2025-11-08T10:52:30.281Z</time>
      </trkpt>
      <trkpt lat="50.70577" lon="2.17177">
        <ele>40.38</ele>
        <time>2025-11-08T10:52:30.883Z</time>
      </trkpt>
      <trkpt lat="50.70596" lon="2.17183">
        <ele>40.1</ele>
        <time>2025-11-08T10:52:31.500Z</time>
      </trkpt>
      <trkpt lat="50.70615" lon="2.17188">
        <ele>39.78</ele>
        <time>2025-11-08T10:52:32.131Z</time>
      </trkpt>
      <trkpt lat="50.70631" lon="2.17188">
        <ele>39.52</ele>
        <time>2025-11-08T10:52:32.774Z</time>
      </trkpt>
      <trkpt lat="50.70647" lon="2.17188">
        <ele>39.28</ele>
        <time>2025-11-08T10:52:33.429Z</time>
      </trkpt>
      <trkpt lat="50.70665" lon="2.17188">
        <ele>39.15</ele>
        <time>2025-11-08T10:52:34.096Z</time>
      </trkpt>
      <trkpt lat="50.70667" lon="2.17154">
        <ele>39.1</ele>
        <time>2025-11-08T10:52:34.780Z</time>
      </trkpt>
      <trkpt lat="50.70669" lon="2.17119">
        <ele>39.12</ele>
        <time>2025-11-08T10:52:35.480Z</time>
      </trkpt>
      <trkpt lat="50.70671" lon="2.17086">
        <ele>39.26</ele>
        <time>2025-11-08T10:52:36.195Z</time>
      </trkpt>
      <trkpt lat="50.70673" lon="2.17053">
        <ele>39.37</ele>
        <time>2025-11-08T10:52:36.926Z</time>
      </trkpt>
      <trkpt lat="50.70675" lon="2.17021">
        <ele>39.56</ele>
        <time>2025-11-08T10:52:37.672Z</time>
      </trkpt>
      <trkpt lat="50.7068" lon="2.16993">
        <ele>39.71</ele>
        <time>2025-11-08T10:52:38.431Z</time>
      </trkpt>
      <trkpt lat="50.70684" lon="2.16965">
        <ele>39.89</ele>
        <time>2025-11-08T10:52:39.204Z</time>
      </trkpt>
      <trkpt lat="50.70688" lon="2.16944">
        <ele>40.13</ele>
        <time>2025-11-08T10:52:39.987Z</time>
      </trkpt>
      <trkpt lat="50.70699" lon="2.16912">
        <ele>40.39</ele>
        <time>2025-11-08T10:52:40.787Z</time>
      </trkpt>
      <trkpt lat="50.7071" lon="2.1688">
        <ele>40.67</ele>
        <time>2025-11-08T10:52:41.604Z</time>
      </trkpt>
      <trkpt lat="50.7072" lon="2.16849">
        <ele>40.94</ele>
        <time>2025-11-08T10:52:42.437Z</time>
      </trkpt>
      <trkpt lat="50.7073" lon="2.16817">
        <ele>41.17</ele>
        <time>2025-11-08T10:52:43.287Z</time>
      </trkpt>
      <trkpt lat="50.70741" lon="2.16785">
        <ele>41.47</ele>
        <time>2025-11-08T10:52:44.154Z</time>
      </trkpt>
      <trkpt lat="50.7075" lon="2.16753">
        <ele>41.7</ele>
        <time>2025-11-08T10:52:45.037Z</time>
      </trkpt>
      <trkpt lat="50.70759" lon="2.16723">
        <ele>41.95</ele>
        <time>2025-11-08T10:52:45.935Z</time>
      </trkpt>
      <trkpt lat="50.70768" lon="2.16695">
        <ele>42.23</ele>
        <time>2025-11-08T10:52:46.848Z</time>
      </trkpt>
      <trkpt lat="50.7077" lon="2.16673">
        <ele>42.56</ele>
        <time>2025-11-08T10:52:47.771Z</time>
      </trkpt>
      <trkpt lat="50.70776" lon="2.16635">
        <ele>42.82</ele>
        <time>2025-11-08T10:52:48.713Z</time>
      </trkpt>
      <trkpt lat="50.70776" lon="2.16635">
        <ele>42.94</ele>
        <time>2025-11-08T10:52:49.655Z</time>
      </trkpt>
      <trkpt lat="50.70784" lon="2.16609">
        <ele>42.97</ele>
        <time>2025-11-08T10:52:50.610Z</time>
      </trkpt>
      <trkpt lat="50.70791" lon="2.16583">
        <ele>42.89</ele>
        <time>2025-11-08T10:52:51.578Z</time>
      </trkpt>
      <trkpt lat="50.70801" lon="2.16555">
        <ele>42.72</ele>
        <time>2025-11-08T10:52:52.561Z</time>
      </trkpt>
      <trkpt lat="50.70811" lon="2.16527">
        <ele>42.47</ele>
        <time>2025-11-08T10:52:53.559Z</time>
      </trkpt>
      <trkpt lat="50.70818" lon="2.1649">
        <ele>42.44</ele>
        <time>2025-11-08T10:52:54.575Z</time>
      </trkpt>
      <trkpt lat="50.70826" lon="2.16452">
        <ele>42.33</ele>
        <time>2025-11-08T10:52:55.610Z</time>
      </trkpt>
      <trkpt lat="50.7083" lon="2.16429">
        <ele>42.2</ele>
        <time>2025-11-08T10:52:56.656Z</time>
      </trkpt>
      <trkpt lat="50.70835" lon="2.16382">
        <ele>42</ele>
        <time>2025-11-08T10:52:57.724Z</time>
      </trkpt>
      <trkpt lat="50.7084" lon="2.16335">
        <ele>41.69</ele>
        <time>2025-11-08T10:52:58.814Z</time>
      </trkpt>
      <trkpt lat="50.70845" lon="2.16289">
        <ele>41.28</ele>
        <time>2025-11-08T10:52:59.926Z</time>
      </trkpt>
      <trkpt lat="50.70848" lon="2.1625">
        <ele>40.9</ele>
        <time>2025-11-08T10:53:01.057Z</time>
      </trkpt>
      <trkpt lat="50.70852" lon="2.1621">
        <ele>40.62</ele>
        <time>2025-11-08T10:53:02.206Z</time>
      </trkpt>
      <trkpt lat="50.70856" lon="2.16171">
        <ele>40.37</ele>
        <time>2025-11-08T10:53:03.374Z</time>
      </trkpt>
      <trkpt lat="50.70856" lon="2.16171">
        <ele>40.09</ele>
        <time>2025-11-08T10:53:04.542Z</time>
      </trkpt>
      <trkpt lat="50.70859" lon="2.16136">
        <ele>39.93</ele>
        <time>2025-11-08T10:53:05.726Z</time>
      </trkpt>
      <trkpt lat="50.70862" lon="2.161">
        <ele>39.65</ele>
        <time>2025-11-08T10:53:06.927Z</time>
      </trkpt>
      <trkpt lat="50.70865" lon="2.16066">
        <ele>39.34</ele>
        <time>2025-11-08T10:53:08.144Z</time>
      </trkpt>
      <trkpt lat="50.70868" lon="2.16031">
        <ele>39.05</ele>
        <time>2025-11-08T10:53:09.377Z</time>
      </trkpt>
      <trkpt lat="50.70871" lon="2.15997">
        <ele>38.82</ele>
        <time>2025-11-08T10:53:10.626Z</time>
      </trkpt>
      <trkpt lat="50.70873" lon="2.15952">
        <ele>38.59</ele>
        <time>2025-11-08T10:53:11.896Z</time>
      </trkpt>
      <trkpt lat="50.70873" lon="2.15952">
        <ele>38.41</ele>
        <time>2025-11-08T10:53:13.166Z</time>
      </trkpt>
      <trkpt lat="50.70872" lon="2.15918">
        <ele>38.29</ele>
        <time>2025-11-08T10:53:14.452Z</time>
      </trkpt>
      <trkpt lat="50.70871" lon="2.15883">
        <ele>38.16</ele>
        <time>2025-11-08T10:53:15.754Z</time>
      </trkpt>
      <trkpt lat="50.70871" lon="2.15875">
        <ele>38.04</ele>
        <time>2025-11-08T10:53:17.060Z</time>
      </trkpt>
      <trkpt lat="50.70871" lon="2.15847">
        <ele>37.9</ele>
        <time>2025-11-08T10:53:18.379Z</time>
      </trkpt>
      <trkpt lat="50.70866" lon="2.15836">
        <ele>37.86</ele>
        <time>2025-11-08T10:53:19.704Z</time>
      </trkpt>
      <trkpt lat="50.70866" lon="2.15819">
        <ele>37.82</ele>
        <time>2025-11-08T10:53:21.037Z</time>
      </trkpt>
      <trkpt lat="50.70864" lon="2.15796">
        <ele>37.83</ele>
        <time>2025-11-08T10:53:22.381Z</time>
      </trkpt>
      <trkpt lat="50.70856" lon="2.15757">
        <ele>37.83</ele>
        <time>2025-11-08T10:53:23.745Z</time>
      </trkpt>
      <trkpt lat="50.70847" lon="2.15711">
        <ele>37.77</ele>
        <time>2025-11-08T10:53:25.131Z</time>
      </trkpt>
      <trkpt lat="50.70838" lon="2.15665">
        <ele>37.57</ele>
        <time>2025-11-08T10:53:26.539Z</time>
      </trkpt>
      <trkpt lat="50.70833" lon="2.15639">
        <ele>37.5</ele>
        <time>2025-11-08T10:53:27.960Z</time>
      </trkpt>
      <trkpt lat="50.70828" lon="2.15613">
        <ele>37.45</ele>
        <time>2025-11-08T10:53:29.394Z</time>
      </trkpt>
      <trkpt lat="50.70826" lon="2.15605">
        <ele>37.38</ele>
        <time>2025-11-08T10:53:30.832Z</time>
      </trkpt>
      <trkpt lat="50.70826" lon="2.15583">
        <ele>37.27</ele>
        <time>2025-11-08T10:53:32.280Z</time>
      </trkpt>
      <trkpt lat="50.70841" lon="2.15577">
        <ele>37.11</ele>
        <time>2025-11-08T10:53:33.739Z</time>
      </trkpt>
      <trkpt lat="50.70847" lon="2.15572">
        <ele>37.02</ele>
        <time>2025-11-08T10:53:35.203Z</time>
      </trkpt>
      <trkpt lat="50.70849" lon="2.15571">
        <ele>36.93</ele>
        <time>2025-11-08T10:53:36.669Z</time>
      </trkpt>
      <trkpt lat="50.70858" lon="2.15566">
        <ele>36.84</ele>
        <time>2025-11-08T10:53:38.142Z</time>
      </trkpt>
      <trkpt lat="50.70868" lon="2.15566">
        <ele>36.76</ele>
        <time>2025-11-08T10:53:39.623Z</time>
      </trkpt>
      <trkpt lat="50.70888" lon="2.15575">
        <ele>36.67</ele>
        <time>2025-11-08T10:53:41.119Z</time>
      </trkpt>
      <trkpt lat="50.70906" lon="2.15585">
        <ele>36.59</ele>
        <time>2025-11-08T10:53:42.629Z</time>
      </trkpt>
      <trkpt lat="50.70924" lon="2.15596">
        <ele>36.53</ele>
        <time>2025-11-08T10:53:44.153Z</time>
      </trkpt>
      <trkpt lat="50.70951" lon="2.15617">
        <ele>36.52</ele>
        <time>2025-11-08T10:53:45.699Z</time>
      </trkpt>
      <trkpt lat="50.70978" lon="2.15639">
        <ele>36.44</ele>
        <time>2025-11-08T10:53:47.267Z</time>
      </trkpt>
      <trkpt lat="50.70997" lon="2.15639">
        <ele>36.35</ele>
        <time>2025-11-08T10:53:48.849Z</time>
      </trkpt>
      <trkpt lat="50.71021" lon="2.15633">
        <ele>36.32</ele>
        <time>2025-11-08T10:53:50.449Z</time>
      </trkpt>
      <trkpt lat="50.71044" lon="2.15627">
        <ele>36.32</ele>
        <time>2025-11-08T10:53:52.067Z</time>
      </trkpt>
      <trkpt lat="50.71068" lon="2.15622">
        <ele>36.38</ele>
        <time>2025-11-08T10:53:53.702Z</time>
      </trkpt>
      <trkpt lat="50.71066" lon="2.15596">
        <ele>36.37</ele>
        <time>2025-11-08T10:53:55.349Z</time>
      </trkpt>
      <trkpt lat="50.71072" lon="2.15568">
        <ele>36.44</ele>
        <time>2025-11-08T10:53:57.010Z</time>
      </trkpt>
      <trkpt lat="50.7107" lon="2.1554">
        <ele>36.44</ele>
        <time>2025-11-08T10:53:58.684Z</time>
      </trkpt>
      <trkpt lat="50.71068" lon="2.15512">
        <ele>36.47</ele>
        <time>2025-11-08T10:54:00.371Z</time>
      </trkpt>
      <trkpt lat="50.71066" lon="2.15484">
        <ele>36.46</ele>
        <time>2025-11-08T10:54:02.071Z</time>
      </trkpt>
      <trkpt lat="50.71062" lon="2.15472">
        <ele>36.42</ele>
        <time>2025-11-08T10:54:03.778Z</time>
      </trkpt>
      <trkpt lat="50.71049" lon="2.15441">
        <ele>36.34</ele>
        <time>2025-11-08T10:54:05.502Z</time>
      </trkpt>
      <trkpt lat="50.71037" lon="2.15411">
        <ele>36.28</ele>
        <time>2025-11-08T10:54:07.242Z</time>
      </trkpt>
      <trkpt lat="50.71025" lon="2.15381">
        <ele>36.23</ele>
        <time>2025-11-08T10:54:08.999Z</time>
      </trkpt>
      <trkpt lat="50.71021" lon="2.15375">
        <ele>36.21</ele>
        <time>2025-11-08T10:54:10.760Z</time>
      </trkpt>
      <trkpt lat="50.71012" lon="2.15353">
        <ele>36.18</ele>
        <time>2025-11-08T10:54:12.533Z</time>
      </trkpt>
      <trkpt lat="50.71004" lon="2.15332">
        <ele>36.15</ele>
        <time>2025-11-08T10:54:14.318Z</time>
      </trkpt>
      <trkpt lat="50.70989" lon="2.15313">
        <ele>36.15</ele>
        <time>2025-11-08T10:54:16.117Z</time>
      </trkpt>
      <trkpt lat="50.70973" lon="2.15276">
        <ele>36.19</ele>
        <time>2025-11-08T10:54:17.937Z</time>
      </trkpt>
      <trkpt lat="50.70956" lon="2.1524">
        <ele>36.21</ele>
        <time>2025-11-08T10:54:19.778Z</time>
      </trkpt>
      <trkpt lat="50.7095" lon="2.1522">
        <ele>36.25</ele>
        <time>2025-11-08T10:54:21.629Z</time>
      </trkpt>
      <trkpt lat="50.7095" lon="2.15193">
        <ele>36.28</ele>
        <time>2025-11-08T10:54:23.493Z</time>
      </trkpt>
      <trkpt lat="50.70944" lon="2.15161">
        <ele>36.32</ele>
        <time>2025-11-08T10:54:25.372Z</time>
      </trkpt>
      <trkpt lat="50.70937" lon="2.1513">
        <ele>36.32</ele>
        <time>2025-11-08T10:54:27.266Z</time>
      </trkpt>
      <trkpt lat="50.70926" lon="2.15096">
        <ele>36.25</ele>
        <time>2025-11-08T10:54:29.178Z</time>
      </trkpt>
      <trkpt lat="50.70916" lon="2.15062">
        <ele>36.22</ele>
        <time>2025-11-08T10:54:31.108Z</time>
      </trkpt>
      <trkpt lat="50.70909" lon="2.15034">
        <ele>36.24</ele>
        <time>2025-11-08T10:54:33.052Z</time>
      </trkpt>
      <trkpt lat="50.70909" lon="2.15034">
        <ele>36.25</ele>
        <time>2025-11-08T10:54:34.996Z</time>
      </trkpt>
      <trkpt lat="50.709" lon="2.15003">
        <ele>36.22</ele>
        <time>2025-11-08T10:54:36.956Z</time>
      </trkpt>
      <trkpt lat="50.7089" lon="2.14972">
        <ele>36.23</ele>
        <time>2025-11-08T10:54:38.932Z</time>
      </trkpt>
      <trkpt lat="50.7089" lon="2.14972">
        <ele>36.24</ele>
        <time>2025-11-08T10:54:40.908Z</time>
      </trkpt>
      <trkpt lat="50.70875" lon="2.1493">
        <ele>36.27</ele>
        <time>2025-11-08T10:54:42.906Z</time>
      </trkpt>
      <trkpt lat="50.70859" lon="2.14888">
        <ele>36.34</ele>
        <time>2025-11-08T10:54:44.927Z</time>
      </trkpt>
      <trkpt lat="50.70851" lon="2.14866">
        <ele>36.39</ele>
        <time>2025-11-08T10:54:46.960Z</time>
      </trkpt>
      <trkpt lat="50.70842" lon="2.14831">
        <ele>36.38</ele>
        <time>2025-11-08T10:54:49.011Z</time>
      </trkpt>
      <trkpt lat="50.70832" lon="2.14796">
        <ele>36.38</ele>
        <time>2025-11-08T10:54:51.080Z</time>
      </trkpt>
      <trkpt lat="50.70827" lon="2.14758">
        <ele>36.42</ele>
        <time>2025-11-08T10:54:53.167Z</time>
      </trkpt>
      <trkpt lat="50.70822" lon="2.1472">
        <ele>36.48</ele>
        <time>2025-11-08T10:54:55.272Z</time>
      </trkpt>
      <trkpt lat="50.70825" lon="2.14671">
        <ele>36.47</ele>
        <time>2025-11-08T10:54:57.400Z</time>
      </trkpt>
      <trkpt lat="50.70825" lon="2.14666">
        <ele>36.45</ele>
        <time>2025-11-08T10:54:59.530Z</time>
      </trkpt>
      <trkpt lat="50.708" lon="2.14636">
        <ele>36.24</ele>
        <time>2025-11-08T10:55:01.683Z</time>
      </trkpt>
      <trkpt lat="50.70786" lon="2.1462">
        <ele>36.15</ele>
        <time>2025-11-08T10:55:03.849Z</time>
      </trkpt>
      <trkpt lat="50.70783" lon="2.1457">
        <ele>36.12</ele>
        <time>2025-11-08T10:55:06.038Z</time>
      </trkpt>
      <trkpt lat="50.7078" lon="2.14521">
        <ele>36.16</ele>
        <time>2025-11-08T10:55:08.250Z</time>
      </trkpt>
      <trkpt lat="50.70778" lon="2.14488">
        <ele>36.19</ele>
        <time>2025-11-08T10:55:10.478Z</time>
      </trkpt>
      <trkpt lat="50.70778" lon="2.14438">
        <ele>36.2</ele>
        <time>2025-11-08T10:55:12.729Z</time>
      </trkpt>
      <trkpt lat="50.70778" lon="2.14389">
        <ele>36.21</ele>
        <time>2025-11-08T10:55:15.003Z</time>
      </trkpt>
      <trkpt lat="50.70778" lon="2.14339">
        <ele>36.25</ele>
        <time>2025-11-08T10:55:17.300Z</time>
      </trkpt>
      <trkpt lat="50.70778" lon="2.14289">
        <ele>36.34</ele>
        <time>2025-11-08T10:55:19.620Z</time>
      </trkpt>
      <trkpt lat="50.70778" lon="2.1424">
        <ele>36.45</ele>
        <time>2025-11-08T10:55:21.963Z</time>
      </trkpt>
      <trkpt lat="50.70778" lon="2.14225">
        <ele>36.59</ele>
        <time>2025-11-08T10:55:24.314Z</time>
      </trkpt>
      <trkpt lat="50.70747" lon="2.14215">
        <ele>36.78</ele>
        <time>2025-11-08T10:55:26.688Z</time>
      </trkpt>
      <trkpt lat="50.70716" lon="2.14205">
        <ele>36.95</ele>
        <time>2025-11-08T10:55:29.085Z</time>
      </trkpt>
      <trkpt lat="50.70685" lon="2.14195">
        <ele>37.13</ele>
        <time>2025-11-08T10:55:31.505Z</time>
      </trkpt>
      <trkpt lat="50.70655" lon="2.14185">
        <ele>37.32</ele>
        <time>2025-11-08T10:55:33.948Z</time>
      </trkpt>
      <trkpt lat="50.70624" lon="2.14175">
        <ele>37.52</ele>
        <time>2025-11-08T10:55:36.414Z</time>
      </trkpt>
      <trkpt lat="50.70593" lon="2.14165">
        <ele>37.82</ele>
        <time>2025-11-08T10:55:38.903Z</time>
      </trkpt>
      <trkpt lat="50.70606" lon="2.14119">
        <ele>38.04</ele>
        <time>2025-11-08T10:55:41.415Z</time>
      </trkpt>
      <trkpt lat="50.70618" lon="2.14074">
        <ele>38.25</ele>
        <time>2025-11-08T10:55:43.950Z</time>
      </trkpt>
      <trkpt lat="50.7063" lon="2.14028">
        <ele>38.55</ele>
        <time>2025-11-08T10:55:46.508Z</time>
      </trkpt>
      <trkpt lat="50.70643" lon="2.13983">
        <ele>38.8</ele>
        <time>2025-11-08T10:55:49.089Z</time>
      </trkpt>
      <trkpt lat="50.70655" lon="2.13937">
        <ele>39</ele>
        <time>2025-11-08T10:55:51.693Z</time>
      </trkpt>
      <trkpt lat="50.70668" lon="2.13892">
        <ele>39.09</ele>
        <time>2025-11-08T10:55:54.321Z</time>
      </trkpt>
      <trkpt lat="50.70672" lon="2.13875">
        <ele>39.2</ele>
        <time>2025-11-08T10:55:56.957Z</time>
      </trkpt>
      <trkpt lat="50.70677" lon="2.13826">
        <ele>39.36</ele>
        <time>2025-11-08T10:55:59.616Z</time>
      </trkpt>
      <trkpt lat="50.70682" lon="2.13777">
        <ele>39.44</ele>
        <time>2025-11-08T10:56:02.298Z</time>
      </trkpt>
      <trkpt lat="50.70687" lon="2.13728">
        <ele>39.36</ele>
        <time>2025-11-08T10:56:05.003Z</time>
      </trkpt>
      <trkpt lat="50.70692" lon="2.13679">
        <ele>39.4</ele>
        <time>2025-11-08T10:56:07.731Z</time>
      </trkpt>
      <trkpt lat="50.70697" lon="2.1363">
        <ele>39.48</ele>
        <time>2025-11-08T10:56:10.482Z</time>
      </trkpt>
      <trkpt lat="50.70701" lon="2.13586">
        <ele>39.49</ele>
        <time>2025-11-08T10:56:13.254Z</time>
      </trkpt>
      <trkpt lat="50.70705" lon="2.13557">
        <ele>39.39</ele>
        <time>2025-11-08T10:56:16.040Z</time>
      </trkpt>
      <trkpt lat="50.70705" lon="2.13521">
        <ele>39.31</ele>
        <time>2025-11-08T10:56:18.843Z</time>
      </trkpt>
      <trkpt lat="50.7071" lon="2.13477">
        <ele>39.19</ele>
        <time>2025-11-08T10:56:21.667Z</time>
      </trkpt>
      <trkpt lat="50.70715" lon="2.13434">
        <ele>39.13</ele>
        <time>2025-11-08T10:56:24.511Z</time>
      </trkpt>
      <trkpt lat="50.7072" lon="2.1339">
        <ele>39.08</ele>
        <time>2025-11-08T10:56:27.376Z</time>
      </trkpt>
      <trkpt lat="50.70725" lon="2.13347">
        <ele>39.03</ele>
        <time>2025-11-08T10:56:30.261Z</time>
      </trkpt>
      <trkpt lat="50.70726" lon="2.13298">
        <ele>38.95</ele>
        <time>2025-11-08T10:56:33.169Z</time>
      </trkpt>
      <trkpt lat="50.70727" lon="2.13248">
        <ele>38.8</ele>
        <time>2025-11-08T10:56:36.100Z</time>
      </trkpt>
      <trkpt lat="50.70712" lon="2.13208">
        <ele>38.69</ele>
        <time>2025-11-08T10:56:39.053Z</time>
      </trkpt>
      <trkpt lat="50.70697" lon="2.13188">
        <ele>38.63</ele>
        <time>2025-11-08T10:56:42.021Z</time>
      </trkpt>
      <trkpt lat="50.70688" lon="2.13165">
        <ele>38.56</ele>
        <time>2025-11-08T10:56:45.001Z</time>
      </trkpt>
      <trkpt lat="50.70688" lon="2.1315">
        <ele>38.52</ele>
        <time>2025-11-08T10:56:47.988Z</time>
      </trkpt>
      <trkpt lat="50.70696" lon="2.13119">
        <ele>38.49</ele>
        <time>2025-11-08T10:56:50.991Z</time>
      </trkpt>
      <trkpt lat="50.70703" lon="2.13088">
        <ele>38.52</ele>
        <time>2025-11-08T10:56:54.009Z</time>
      </trkpt>
      <trkpt lat="50.70708" lon="2.1304">
        <ele>38.54</ele>
        <time>2025-11-08T10:56:57.050Z</time>
      </trkpt>
      <trkpt lat="50.70708" lon="2.13002">
        <ele>38.52</ele>
        <time>2025-11-08T10:57:00.109Z</time>
      </trkpt>
      <trkpt lat="50.70705" lon="2.12975">
        <ele>38.52</ele>
        <time>2025-11-08T10:57:03.180Z</time>
      </trkpt>
      <trkpt lat="50.70703" lon="2.12948">
        <ele>38.56</ele>
        <time>2025-11-08T10:57:06.264Z</time>
      </trkpt>
      <trkpt lat="50.70699" lon="2.12933">
        <ele>38.6</ele>
        <time>2025-11-08T10:57:09.355Z</time>
      </trkpt>
      <trkpt lat="50.7069" lon="2.12927">
        <ele>38.68</ele>
        <time>2025-11-08T10:57:12.453Z</time>
      </trkpt>
      <trkpt lat="50.7068" lon="2.12927">
        <ele>38.77</ele>
        <time>2025-11-08T10:57:15.559Z</time>
      </trkpt>
      <trkpt lat="50.70662" lon="2.12939">
        <ele>38.88</ele>
        <time>2025-11-08T10:57:18.680Z</time>
      </trkpt>
      <trkpt lat="50.70643" lon="2.12951">
        <ele>39</ele>
        <time>2025-11-08T10:57:21.815Z</time>
      </trkpt>
      <trkpt lat="50.70639" lon="2.12955">
        <ele>39.09</ele>
        <time>2025-11-08T10:57:24.954Z</time>
      </trkpt>
      <trkpt lat="50.7062" lon="2.12952">
        <ele>39.22</ele>
        <time>2025-11-08T10:57:28.107Z</time>
      </trkpt>
      <trkpt lat="50.70617" lon="2.12944">
        <ele>39.29</ele>
        <time>2025-11-08T10:57:31.264Z</time>
      </trkpt>
      <trkpt lat="50.70636" lon="2.12906">
        <ele>39.31</ele>
        <time>2025-11-08T10:57:34.443Z</time>
      </trkpt>
      <trkpt lat="50.70654" lon="2.12869">
        <ele>39.43</ele>
        <time>2025-11-08T10:57:37.644Z</time>
      </trkpt>
      <trkpt lat="50.70658" lon="2.12856">
        <ele>39.55</ele>
        <time>2025-11-08T10:57:40.852Z</time>
      </trkpt>
      <trkpt lat="50.70656" lon="2.12812">
        <ele>39.65</ele>
        <time>2025-11-08T10:57:44.081Z</time>
      </trkpt>
      <trkpt lat="50.70654" lon="2.12768">
        <ele>39.75</ele>
        <time>2025-11-08T10:57:47.330Z</time>
      </trkpt>
      <trkpt lat="50.70664" lon="2.12736">
        <ele>39.84</ele>
        <time>2025-11-08T10:57:50.596Z</time>
      </trkpt>
      <trkpt lat="50.70673" lon="2.12703">
        <ele>39.93</ele>
        <time>2025-11-08T10:57:53.879Z</time>
      </trkpt>
      <trkpt lat="50.70656" lon="2.12667">
        <ele>40.01</ele>
        <time>2025-11-08T10:57:57.183Z</time>
      </trkpt>
      <trkpt lat="50.70643" lon="2.12631">
        <ele>40.09</ele>
        <time>2025-11-08T10:58:00.506Z</time>
      </trkpt>
      <trkpt lat="50.70637" lon="2.12587">
        <ele>40.14</ele>
        <time>2025-11-08T10:58:03.850Z</time>
      </trkpt>
      <trkpt lat="50.7063" lon="2.12545">
        <ele>40.2</ele>
        <time>2025-11-08T10:58:07.214Z</time>
      </trkpt>
      <trkpt lat="50.70626" lon="2.12513">
        <ele>40.3</ele>
        <time>2025-11-08T10:58:10.593Z</time>
      </trkpt>
      <trkpt lat="50.70622" lon="2.12482">
        <ele>40.45</ele>
        <time>2025-11-08T10:58:13.987Z</time>
      </trkpt>
      <trkpt lat="50.70616" lon="2.12454">
        <ele>40.62</ele>
        <time>2025-11-08T10:58:17.395Z</time>
      </trkpt>
      <trkpt lat="50.70611" lon="2.12427">
        <ele>40.75</ele>
        <time>2025-11-08T10:58:20.816Z</time>
      </trkpt>
      <trkpt lat="50.70598" lon="2.12386">
        <ele>40.87</ele>
        <time>2025-11-08T10:58:24.258Z</time>
      </trkpt>
      <trkpt lat="50.7059" lon="2.12411">
        <ele>40.79</ele>
        <time>2025-11-08T10:58:27.714Z</time>
      </trkpt>
      <trkpt lat="50.70582" lon="2.12437">
        <ele>40.74</ele>
        <time>2025-11-08T10:58:31.183Z</time>
      </trkpt>
      <trkpt lat="50.70574" lon="2.12463">
        <ele>40.65</ele>
        <time>2025-11-08T10:58:34.665Z</time>
      </trkpt>
      <trkpt lat="50.70566" lon="2.12489">
        <ele>40.66</ele>
        <time>2025-11-08T10:58:38.161Z</time>
      </trkpt>
      <trkpt lat="50.70557" lon="2.12506">
        <ele>40.71</ele>
        <time>2025-11-08T10:58:41.667Z</time>
      </trkpt>
      <trkpt lat="50.70547" lon="2.12517">
        <ele>40.76</ele>
        <time>2025-11-08T10:58:45.182Z</time>
      </trkpt>
      <trkpt lat="50.70532" lon="2.12517">
        <ele>40.82</ele>
        <time>2025-11-08T10:58:48.709Z</time>
      </trkpt>
      <trkpt lat="50.70509" lon="2.12511">
        <ele>40.9</ele>
        <time>2025-11-08T10:58:52.252Z</time>
      </trkpt>
      <trkpt lat="50.70487" lon="2.12506">
        <ele>41.03</ele>
        <time>2025-11-08T10:58:55.812Z</time>
      </trkpt>
      <trkpt lat="50.70469" lon="2.12489">
        <ele>41.18</ele>
        <time>2025-11-08T10:58:59.387Z</time>
      </trkpt>
      <trkpt lat="50.70469" lon="2.1247">
        <ele>41.32</ele>
        <time>2025-11-08T10:59:02.971Z</time>
      </trkpt>
      <trkpt lat="50.7045" lon="2.1245">
        <ele>41.44</ele>
        <time>2025-11-08T10:59:06.572Z</time>
      </trkpt>
      <trkpt lat="50.70431" lon="2.12431">
        <ele>41.52</ele>
        <time>2025-11-08T10:59:10.190Z</time>
      </trkpt>
      <trkpt lat="50.70411" lon="2.12412">
        <ele>41.62</ele>
        <time>2025-11-08T10:59:13.824Z</time>
      </trkpt>
      <trkpt lat="50.70399" lon="2.12392">
        <ele>41.77</ele>
        <time>2025-11-08T10:59:17.471Z</time>
      </trkpt>
      <trkpt lat="50.70386" lon="2.12373">
        <ele>41.95</ele>
        <time>2025-11-08T10:59:21.131Z</time>
      </trkpt>
      <trkpt lat="50.70375" lon="2.12394">
        <ele>42.08</ele>
        <time>2025-11-08T10:59:24.804Z</time>
      </trkpt>
      <trkpt lat="50.70369" lon="2.12401">
        <ele>42.23</ele>
        <time>2025-11-08T10:59:28.483Z</time>
      </trkpt>
      <trkpt lat="50.7036" lon="2.12409">
        <ele>42.36</ele>
        <time>2025-11-08T10:59:32.169Z</time>
      </trkpt>
      <trkpt lat="50.70345" lon="2.12422">
        <ele>42.48</ele>
        <time>2025-11-08T10:59:35.868Z</time>
      </trkpt>
      <trkpt lat="50.7033" lon="2.12431">
        <ele>42.62</ele>
        <time>2025-11-08T10:59:39.578Z</time>
      </trkpt>
      <trkpt lat="50.70321" lon="2.12429">
        <ele>42.74</ele>
        <time>2025-11-08T10:59:43.295Z</time>
      </trkpt>
      <trkpt lat="50.70306" lon="2.12409">
        <ele>42.84</ele>
        <time>2025-11-08T10:59:47.026Z</time>
      </trkpt>
      <trkpt lat="50.70291" lon="2.12377">
        <ele>42.92</ele>
        <time>2025-11-08T10:59:50.776Z</time>
      </trkpt>
      <trkpt lat="50.70266" lon="2.12349">
        <ele>43.04</ele>
        <time>2025-11-08T10:59:54.549Z</time>
      </trkpt>
      <trkpt lat="50.70246" lon="2.12337">
        <ele>43.15</ele>
        <time>2025-11-08T10:59:58.337Z</time>
      </trkpt>
      <trkpt lat="50.70228" lon="2.12324">
        <ele>43.28</ele>
        <time>2025-11-08T11:00:02.140Z</time>
      </trkpt>
      <trkpt lat="50.7021" lon="2.12311">
        <ele>43.4</ele>
        <time>2025-11-08T11:00:05.957Z</time>
      </trkpt>
      <trkpt lat="50.7021" lon="2.12311">
        <ele>43.49</ele>
        <time>2025-11-08T11:00:09.774Z</time>
      </trkpt>
      <trkpt lat="50.7021" lon="2.12311">
        <ele>43.4</ele>
        <time>2025-11-08T11:00:13.591Z</time>
      </trkpt>
      <trkpt lat="50.70184" lon="2.12289">
        <ele>43.68</ele>
        <time>2025-11-08T11:00:17.430Z</time>
      </trkpt>
      <trkpt lat="50.70175" lon="2.12285">
        <ele>43.76</ele>
        <time>2025-11-08T11:00:21.275Z</time>
      </trkpt>
      <trkpt lat="50.7016" lon="2.12274">
        <ele>43.86</ele>
        <time>2025-11-08T11:00:25.133Z</time>
      </trkpt>
      <trkpt lat="50.7015" lon="2.12281">
        <ele>43.9</ele>
        <time>2025-11-08T11:00:28.999Z</time>
      </trkpt>
      <trkpt lat="50.70135" lon="2.12279">
        <ele>43.92</ele>
        <time>2025-11-08T11:00:32.876Z</time>
      </trkpt>
      <trkpt lat="50.70135" lon="2.12279">
        <ele>43.95</ele>
        <time>2025-11-08T11:00:36.753Z</time>
      </trkpt>
      <trkpt lat="50.70128" lon="2.12279">
        <ele>43.96</ele>
        <time>2025-11-08T11:00:40.635Z</time>
      </trkpt>
      <trkpt lat="50.70128" lon="2.12279">
        <ele>43.98</ele>
        <time>2025-11-08T11:00:44.517Z</time>
      </trkpt>
      <trkpt lat="50.70111" lon="2.12276">
        <ele>44.04</ele>
        <time>2025-11-08T11:00:48.411Z</time>
      </trkpt>
      <trkpt lat="50.70108" lon="2.12308">
        <ele>44.02</ele>
        <time>2025-11-08T11:00:52.320Z</time>
      </trkpt>
      <trkpt lat="50.70105" lon="2.12339">
        <ele>43.97</ele>
        <time>2025-11-08T11:00:56.244Z</time>
      </trkpt>
      <trkpt lat="50.70105" lon="2.12339">
        <ele>43.99</ele>
        <time>2025-11-08T11:01:00.168Z</time>
      </trkpt>
      <trkpt lat="50.70096" lon="2.12371">
        <ele>44.03</ele>
        <time>2025-11-08T11:01:04.108Z</time>
      </trkpt>
      <trkpt lat="50.70081" lon="2.12407">
        <ele>44.04</ele>
        <time>2025-11-08T11:01:08.068Z</time>
      </trkpt>
      <trkpt lat="50.70062" lon="2.12434">
        <ele>44.1</ele>
        <time>2025-11-08T11:01:12.047Z</time>
      </trkpt>
      <trkpt lat="50.70043" lon="2.1246">
        <ele>44.24</ele>
        <time>2025-11-08T11:01:16.044Z</time>
      </trkpt>
      <trkpt lat="50.70025" lon="2.12486">
        <ele>44.44</ele>
        <time>2025-11-08T11:01:20.060Z</time>
      </trkpt>
      <trkpt lat="50.70006" lon="2.12512">
        <ele>44.53</ele>
        <time>2025-11-08T11:01:24.094Z</time>
      </trkpt>
      <trkpt lat="50.69993" lon="2.1253">
        <ele>44.58</ele>
        <time>2025-11-08T11:01:28.141Z</time>
      </trkpt>
      <trkpt lat="50.69993" lon="2.1253">
        <ele>44.7</ele>
        <time>2025-11-08T11:01:32.188Z</time>
      </trkpt>
      <trkpt lat="50.6998" lon="2.12547">
        <ele>44.78</ele>
        <time>2025-11-08T11:01:36.247Z</time>
      </trkpt>
      <trkpt lat="50.6998" lon="2.12547">
        <ele>44.94</ele>
        <time>2025-11-08T11:01:40.306Z</time>
      </trkpt>
      <trkpt lat="50.69957" lon="2.12579">
        <ele>45.18</ele>
        <time>2025-11-08T11:01:44.388Z</time>
      </trkpt>
      <trkpt lat="50.69933" lon="2.12611">
        <ele>45.4</ele>
        <time>2025-11-08T11:01:48.493Z</time>
      </trkpt>
      <trkpt lat="50.69909" lon="2.12643">
        <ele>45.59</ele>
        <time>2025-11-08T11:01:52.621Z</time>
      </trkpt>
      <trkpt lat="50.69889" lon="2.12663">
        <ele>45.76</ele>
        <time>2025-11-08T11:01:56.766Z</time>
      </trkpt>
      <trkpt lat="50.69868" lon="2.12682">
        <ele>46.01</ele>
        <time>2025-11-08T11:02:00.929Z</time>
      </trkpt>
      <trkpt lat="50.69847" lon="2.12701">
        <ele>46.3</ele>
        <time>2025-11-08T11:02:05.110Z</time>
      </trkpt>
      <trkpt lat="50.69826" lon="2.12714">
        <ele>46.56</ele>
        <time>2025-11-08T11:02:09.308Z</time>
      </trkpt>
      <trkpt lat="50.69796" lon="2.12721">
        <ele>46.83</ele>
        <time>2025-11-08T11:02:13.528Z</time>
      </trkpt>
      <trkpt lat="50.69766" lon="2.12723">
        <ele>47.09</ele>
        <time>2025-11-08T11:02:17.770Z</time>
      </trkpt>
      <trkpt lat="50.69763" lon="2.12734">
        <ele>47.42</ele>
        <time>2025-11-08T11:02:22.017Z</time>
      </trkpt>
      <trkpt lat="50.69754" lon="2.12771">
        <ele>47.82</ele>
        <time>2025-11-08T11:02:26.283Z</time>
      </trkpt>
      <trkpt lat="50.69744" lon="2.12809">
        <ele>48.4</ele>
        <time>2025-11-08T11:02:30.568Z</time>
      </trkpt>
      <trkpt lat="50.69718" lon="2.12803">
        <ele>48.82</ele>
        <time>2025-11-08T11:02:34.872Z</time>
      </trkpt>
      <trkpt lat="50.69693" lon="2.12798">
        <ele>49.17</ele>
        <time>2025-11-08T11:02:39.195Z</time>
      </trkpt>
      <trkpt lat="50.69667" lon="2.12793">
        <ele>49.44</ele>
        <time>2025-11-08T11:02:43.537Z</time>
      </trkpt>
      <trkpt lat="50.69641" lon="2.12788">
        <ele>49.56</ele>
        <time>2025-11-08T11:02:47.898Z</time>
      </trkpt>
      <trkpt lat="50.69612" lon="2.12782">
        <ele>49.6</ele>
        <time>2025-11-08T11:02:52.281Z</time>
      </trkpt>
      <trkpt lat="50.69582" lon="2.12776">
        <ele>49.6</ele>
        <time>2025-11-08T11:02:56.686Z</time>
      </trkpt>
      <trkpt lat="50.69553" lon="2.1277">
        <ele>49.68</ele>
        <time>2025-11-08T11:03:01.113Z</time>
      </trkpt>
      <trkpt lat="50.69523" lon="2.12764">
        <ele>49.73</ele>
        <time>2025-11-08T11:03:05.562Z</time>
      </trkpt>
      <trkpt lat="50.69499" lon="2.12764">
        <ele>49.7</ele>
        <time>2025-11-08T11:03:10.028Z</time>
      </trkpt>
      <trkpt lat="50.69476" lon="2.12764">
        <ele>49.51</ele>
        <time>2025-11-08T11:03:14.511Z</time>
      </trkpt>
      <trkpt lat="50.69448" lon="2.12769">
        <ele>49.43</ele>
        <time>2025-11-08T11:03:19.015Z</time>
      </trkpt>
      <trkpt lat="50.6942" lon="2.12774">
        <ele>49.34</ele>
        <time>2025-11-08T11:03:23.540Z</time>
      </trkpt>
      <trkpt lat="50.69396" lon="2.12768">
        <ele>49</ele>
        <time>2025-11-08T11:03:28.082Z</time>
      </trkpt>
      <trkpt lat="50.69369" lon="2.12768">
        <ele>48.71</ele>
        <time>2025-11-08T11:03:32.645Z</time>
      </trkpt>
      <trkpt lat="50.6936" lon="2.12746">
        <ele>48.43</ele>
        <time>2025-11-08T11:03:37.219Z</time>
      </trkpt>
      <trkpt lat="50.69351" lon="2.12725">
        <ele>48.2</ele>
        <time>2025-11-08T11:03:41.805Z</time>
      </trkpt>
      <trkpt lat="50.69339" lon="2.12742">
        <ele>48.07</ele>
        <time>2025-11-08T11:03:46.404Z</time>
      </trkpt>
      <trkpt lat="50.69324" lon="2.12751">
        <ele>47.95</ele>
        <time>2025-11-08T11:03:51.014Z</time>
      </trkpt>
      <trkpt lat="50.69302" lon="2.12779">
        <ele>47.87</ele>
        <time>2025-11-08T11:03:55.645Z</time>
      </trkpt>
      <trkpt lat="50.69286" lon="2.1281">
        <ele>47.87</ele>
        <time>2025-11-08T11:04:00.295Z</time>
      </trkpt>
      <trkpt lat="50.6927" lon="2.12841">
        <ele>47.86</ele>
        <time>2025-11-08T11:04:04.963Z</time>
      </trkpt>
      <trkpt lat="50.69254" lon="2.12872">
        <ele>47.87</ele>
        <time>2025-11-08T11:04:09.650Z</time>
      </trkpt>
      <trkpt lat="50.69238" lon="2.12903">
        <ele>48.03</ele>
        <time>2025-11-08T11:04:14.356Z</time>
      </trkpt>
      <trkpt lat="50.69227" lon="2.12923">
        <ele>48.21</ele>
        <time>2025-11-08T11:04:19.074Z</time>
      </trkpt>
      <trkpt lat="50.69216" lon="2.12944">
        <ele>48.42</ele>
        <time>2025-11-08T11:04:23.804Z</time>
      </trkpt>
      <trkpt lat="50.69197" lon="2.12981">
        <ele>48.64</ele>
        <time>2025-11-08T11:04:28.557Z</time>
      </trkpt>
      <trkpt lat="50.69178" lon="2.13018">
        <ele>48.97</ele>
        <time>2025-11-08T11:04:33.332Z</time>
      </trkpt>
      <trkpt lat="50.69158" lon="2.13055">
        <ele>49.44</ele>
        <time>2025-11-08T11:04:38.130Z</time>
      </trkpt>
      <trkpt lat="50.69145" lon="2.13079">
        <ele>49.8</ele>
        <time>2025-11-08T11:04:42.942Z</time>
      </trkpt>
      <trkpt lat="50.69133" lon="2.13103">
        <ele>50.22</ele>
        <time>2025-11-08T11:04:47.769Z</time>
      </trkpt>
      <trkpt lat="50.69113" lon="2.13122">
        <ele>50.53</ele>
        <time>2025-11-08T11:04:52.613Z</time>
      </trkpt>
      <trkpt lat="50.69092" lon="2.13141">
        <ele>50.76</ele>
        <time>2025-11-08T11:04:57.474Z</time>
      </trkpt>
      <trkpt lat="50.69072" lon="2.13161">
        <ele>50.99</ele>
        <time>2025-11-08T11:05:02.352Z</time>
      </trkpt>
      <trkpt lat="50.69066" lon="2.13167">
        <ele>51.26</ele>
        <time>2025-11-08T11:05:07.236Z</time>
      </trkpt>
      <trkpt lat="50.69066" lon="2.13167">
        <ele>51.52</ele>
        <time>2025-11-08T11:05:12.120Z</time>
      </trkpt>
      <trkpt lat="50.69039" lon="2.13191">
        <ele>51.74</ele>
        <time>2025-11-08T11:05:17.027Z</time>
      </trkpt>
      <trkpt lat="50.69012" lon="2.13216">
        <ele>52.03</ele>
        <time>2025-11-08T11:05:21.957Z</time>
      </trkpt>
      <trkpt lat="50.68985" lon="2.1324">
        <ele>52.26</ele>
        <time>2025-11-08T11:05:26.910Z</time>
      </trkpt>
      <trkpt lat="50.68958" lon="2.13258">
        <ele>52.43</ele>
        <time>2025-11-08T11:05:31.884Z</time>
      </trkpt>
      <trkpt lat="50.68932" lon="2.13277">
        <ele>52.58</ele>
        <time>2025-11-08T11:05:36.879Z</time>
      </trkpt>
      <trkpt lat="50.68906" lon="2.13295">
        <ele>52.64</ele>
        <time>2025-11-08T11:05:41.895Z</time>
      </trkpt>
      <trkpt lat="50.68879" lon="2.13314">
        <ele>52.66</ele>
        <time>2025-11-08T11:05:46.932Z</time>
      </trkpt>
      <trkpt lat="50.68853" lon="2.13332">
        <ele>52.66</ele>
        <time>2025-11-08T11:05:51.991Z</time>
      </trkpt>
      <trkpt lat="50.68827" lon="2.13351">
        <ele>52.63</ele>
        <time>2025-11-08T11:05:57.071Z</time>
      </trkpt>
      <trkpt lat="50.688" lon="2.1337">
        <ele>52.63</ele>
        <time>2025-11-08T11:06:02.172Z</time>
      </trkpt>
      <trkpt lat="50.68774" lon="2.13388">
        <ele>52.66</ele>
        <time>2025-11-08T11:06:07.294Z</time>
      </trkpt>
      <trkpt lat="50.68747" lon="2.13412">
        <ele>52.76</ele>
        <time>2025-11-08T11:06:12.439Z</time>
      </trkpt>
      <trkpt lat="50.68721" lon="2.13435">
        <ele>52.81</ele>
        <time>2025-11-08T11:06:17.606Z</time>
      </trkpt>
      <trkpt lat="50.68706" lon="2.13458">
        <ele>52.81</ele>
        <time>2025-11-08T11:06:22.788Z</time>
      </trkpt>
      <trkpt lat="50.68691" lon="2.1348">
        <ele>52.74</ele>
        <time>2025-11-08T11:06:27.986Z</time>
      </trkpt>
      <trkpt lat="50.68676" lon="2.13509">
        <ele>52.65</ele>
        <time>2025-11-08T11:06:33.201Z</time>
      </trkpt>
      <trkpt lat="50.68662" lon="2.13538">
        <ele>52.53</ele>
        <time>2025-11-08T11:06:38.433Z</time>
      </trkpt>
      <trkpt lat="50.68648" lon="2.13566">
        <ele>52.33</ele>
        <time>2025-11-08T11:06:43.681Z</time>
      </trkpt>
      <trkpt lat="50.68641" lon="2.13591">
        <ele>52.17</ele>
        <time>2025-11-08T11:06:48.942Z</time>
      </trkpt>
      <trkpt lat="50.68635" lon="2.13615">
        <ele>51.98</ele>
        <time>2025-11-08T11:06:54.215Z</time>
      </trkpt>
      <trkpt lat="50.6863" lon="2.13658">
        <ele>51.83</ele>
        <time>2025-11-08T11:06:59.509Z</time>
      </trkpt>
      <trkpt lat="50.68629" lon="2.13698">
        <ele>51.6</ele>
        <time>2025-11-08T11:07:04.821Z</time>
      </trkpt>
      <trkpt lat="50.68628" lon="2.13738">
        <ele>51.38</ele>
        <time>2025-11-08T11:07:10.152Z</time>
      </trkpt>
      <trkpt lat="50.68628" lon="2.13738">
        <ele>51.19</ele>
        <time>2025-11-08T11:07:15.483Z</time>
      </trkpt>
      <trkpt lat="50.68628" lon="2.13765">
        <ele>50.97</ele>
        <time>2025-11-08T11:07:20.826Z</time>
      </trkpt>
      <trkpt lat="50.68628" lon="2.13791">
        <ele>50.74</ele>
        <time>2025-11-08T11:07:26.182Z</time>
      </trkpt>
      <trkpt lat="50.68633" lon="2.13839">
        <ele>50.51</ele>
        <time>2025-11-08T11:07:31.560Z</time>
      </trkpt>
      <trkpt lat="50.68638" lon="2.13887">
        <ele>50.43</ele>
        <time>2025-11-08T11:07:36.961Z</time>
      </trkpt>
      <trkpt lat="50.68643" lon="2.13935">
        <ele>50.37</ele>
        <time>2025-11-08T11:07:42.385Z</time>
      </trkpt>
      <trkpt lat="50.68644" lon="2.13961">
        <ele>50.21</ele>
        <time>2025-11-08T11:07:47.821Z</time>
      </trkpt>
      <trkpt lat="50.68645" lon="2.13987">
        <ele>50.05</ele>
        <time>2025-11-08T11:07:53.269Z</time>
      </trkpt>
      <trkpt lat="50.68649" lon="2.14029">
        <ele>49.91</ele>
        <time>2025-11-08T11:07:58.736Z</time>
      </trkpt>
      <trkpt lat="50.68652" lon="2.1407">
        <ele>49.73</ele>
        <time>2025-11-08T11:08:04.223Z</time>
      </trkpt>
      <trkpt lat="50.68652" lon="2.14094">
        <ele>49.59</ele>
        <time>2025-11-08T11:08:09.721Z</time>
      </trkpt>
      <trkpt lat="50.68652" lon="2.14143">
        <ele>49.41</ele>
        <time>2025-11-08T11:08:15.242Z</time>
      </trkpt>
      <trkpt lat="50.6865" lon="2.14178">
        <ele>49.3</ele>
        <time>2025-11-08T11:08:20.779Z</time>
      </trkpt>
      <trkpt lat="50.68648" lon="2.14221">
        <ele>49.22</ele>
        <time>2025-11-08T11:08:26.336Z</time>
      </trkpt>
      <trkpt lat="50.68637" lon="2.14221">
        <ele>49.18</ele>
        <time>2025-11-08T11:08:31.901Z</time>
      </trkpt>
      <trkpt lat="50.68609" lon="2.14223">
        <ele>49.14</ele>
        <time>2025-11-08T11:08:37.487Z</time>
      </trkpt>
      <trkpt lat="50.68592" lon="2.14225">
        <ele>49.24</ele>
        <time>2025-11-08T11:08:43.085Z</time>
      </trkpt>
      <trkpt lat="50.68565" lon="2.14227">
        <ele>49.36</ele>
        <time>2025-11-08T11:08:48.703Z</time>
      </trkpt>
      <trkpt lat="50.68538" lon="2.14229">
        <ele>49.66</ele>
        <time>2025-11-08T11:08:54.341Z</time>
      </trkpt>
      <trkpt lat="50.6853" lon="2.14221">
        <ele>49.96</ele>
        <time>2025-11-08T11:08:59.986Z</time>
      </trkpt>
      <trkpt lat="50.68519" lon="2.14214">
        <ele>50.38</ele>
        <time>2025-11-08T11:09:05.640Z</time>
      </trkpt>
      <trkpt lat="50.68517" lon="2.14212">
        <ele>50.74</ele>
        <time>2025-11-08T11:09:11.295Z</time>
      </trkpt>
      <trkpt lat="50.68513" lon="2.14242">
        <ele>51.16</ele>
        <time>2025-11-08T11:09:16.965Z</time>
      </trkpt>
      <trkpt lat="50.6851" lon="2.14272">
        <ele>51.58</ele>
        <time>2025-11-08T11:09:22.649Z</time>
      </trkpt>
      <trkpt lat="50.68504" lon="2.14293">
        <ele>52.03</ele>
        <time>2025-11-08T11:09:28.344Z</time>
      </trkpt>
      <trkpt lat="50.68504" lon="2.14293">
        <ele>52.42</ele>
        <time>2025-11-08T11:09:34.039Z</time>
      </trkpt>
      <trkpt lat="50.68504" lon="2.14293">
        <ele>52.8</ele>
        <time>2025-11-08T11:09:39.734Z</time>
      </trkpt>
      <trkpt lat="50.685" lon="2.14306">
        <ele>53.21</ele>
        <time>2025-11-08T11:09:45.436Z</time>
      </trkpt>
      <trkpt lat="50.68493" lon="2.14345">
        <ele>53.61</ele>
        <time>2025-11-08T11:09:51.156Z</time>
      </trkpt>
      <trkpt lat="50.68487" lon="2.1439">
        <ele>53.99</ele>
        <time>2025-11-08T11:09:56.898Z</time>
      </trkpt>
      <trkpt lat="50.68482" lon="2.14416">
        <ele>54.31</ele>
        <time>2025-11-08T11:10:02.652Z</time>
      </trkpt>
      <trkpt lat="50.68478" lon="2.14429">
        <ele>54.6</ele>
        <time>2025-11-08T11:10:08.413Z</time>
      </trkpt>
      <trkpt lat="50.6847" lon="2.14457">
        <ele>54.86</ele>
        <time>2025-11-08T11:10:14.189Z</time>
      </trkpt>
      <trkpt lat="50.68465" lon="2.14497">
        <ele>54.97</ele>
        <time>2025-11-08T11:10:19.984Z</time>
      </trkpt>
      <trkpt lat="50.68459" lon="2.14534">
        <ele>55.02</ele>
        <time>2025-11-08T11:10:25.797Z</time>
      </trkpt>
      <trkpt lat="50.68451" lon="2.14568">
        <ele>55.08</ele>
        <time>2025-11-08T11:10:31.627Z</time>
      </trkpt>
      <trkpt lat="50.68444" lon="2.14602">
        <ele>55.13</ele>
        <time>2025-11-08T11:10:37.473Z</time>
      </trkpt>
      <trkpt lat="50.68444" lon="2.14602">
        <ele>55.03</ele>
        <time>2025-11-08T11:10:43.319Z</time>
      </trkpt>
      <trkpt lat="50.68437" lon="2.14633">
        <ele>54.89</ele>
        <time>2025-11-08T11:10:49.180Z</time>
      </trkpt>
      <trkpt lat="50.68431" lon="2.1466">
        <ele>54.6</ele>
        <time>2025-11-08T11:10:55.055Z</time>
      </trkpt>
      <trkpt lat="50.68424" lon="2.14678">
        <ele>54.27</ele>
        <time>2025-11-08T11:11:00.939Z</time>
      </trkpt>
      <trkpt lat="50.68412" lon="2.14705">
        <ele>53.81</ele>
        <time>2025-11-08T11:11:06.839Z</time>
      </trkpt>
      <trkpt lat="50.6839" lon="2.14728">
        <ele>53.41</ele>
        <time>2025-11-08T11:11:12.758Z</time>
      </trkpt>
      <trkpt lat="50.68369" lon="2.1475">
        <ele>52.93</ele>
        <time>2025-11-08T11:11:18.696Z</time>
      </trkpt>
      <trkpt lat="50.68347" lon="2.14772">
        <ele>52.54</ele>
        <time>2025-11-08T11:11:24.653Z</time>
      </trkpt>
      <trkpt lat="50.6833" lon="2.14804">
        <ele>52.16</ele>
        <time>2025-11-08T11:11:30.630Z</time>
      </trkpt>
      <trkpt lat="50.68317" lon="2.14843">
        <ele>51.72</ele>
        <time>2025-11-08T11:11:36.627Z</time>
      </trkpt>
      <trkpt lat="50.68306" lon="2.14865">
        <ele>51.32</ele>
        <time>2025-11-08T11:11:42.637Z</time>
      </trkpt>
      <trkpt lat="50.68296" lon="2.14888">
        <ele>50.96</ele>
        <time>2025-11-08T11:11:48.660Z</time>
      </trkpt>
      <trkpt lat="50.68287" lon="2.14918">
        <ele>50.65</ele>
        <time>2025-11-08T11:11:54.699Z</time>
      </trkpt>
      <trkpt lat="50.68285" lon="2.14957">
        <ele>50.33</ele>
        <time>2025-11-08T11:12:00.756Z</time>
      </trkpt>
      <trkpt lat="50.68283" lon="2.14997">
        <ele>49.93</ele>
        <time>2025-11-08T11:12:06.831Z</time>
      </trkpt>
      <trkpt lat="50.68281" lon="2.15036">
        <ele>49.63</ele>
        <time>2025-11-08T11:12:12.925Z</time>
      </trkpt>
      <trkpt lat="50.6827" lon="2.15057">
        <ele>49.44</ele>
        <time>2025-11-08T11:12:19.032Z</time>
      </trkpt>
      <trkpt lat="50.68259" lon="2.15079">
        <ele>49.31</ele>
        <time>2025-11-08T11:12:25.151Z</time>
      </trkpt>
      <trkpt lat="50.68242" lon="2.15098">
        <ele>49.18</ele>
        <time>2025-11-08T11:12:31.286Z</time>
      </trkpt>
      <trkpt lat="50.68225" lon="2.15117">
        <ele>49.17</ele>
        <time>2025-11-08T11:12:37.436Z</time>
      </trkpt>
      <trkpt lat="50.68208" lon="2.15137">
        <ele>49.28</ele>
        <time>2025-11-08T11:12:43.602Z</time>
      </trkpt>
      <trkpt lat="50.68199" lon="2.15141">
        <ele>49.38</ele>
        <time>2025-11-08T11:12:49.774Z</time>
      </trkpt>
      <trkpt lat="50.68195" lon="2.15139">
        <ele>49.49</ele>
        <time>2025-11-08T11:12:55.950Z</time>
      </trkpt>
      <trkpt lat="50.68191" lon="2.15135">
        <ele>49.63</ele>
        <time>2025-11-08T11:13:02.129Z</time>
      </trkpt>
      <trkpt lat="50.68191" lon="2.15135">
        <ele>49.76</ele>
        <time>2025-11-08T11:13:08.308Z</time>
      </trkpt>
      <trkpt lat="50.68176" lon="2.15117">
        <ele>50</ele>
        <time>2025-11-08T11:13:14.501Z</time>
      </trkpt>
      <trkpt lat="50.68163" lon="2.15122">
        <ele>50.26</ele>
        <time>2025-11-08T11:13:20.704Z</time>
      </trkpt>
      <trkpt lat="50.68141" lon="2.1515">
        <ele>50.42</ele>
        <time>2025-11-08T11:13:26.928Z</time>
      </trkpt>
      <trkpt lat="50.68119" lon="2.15179">
        <ele>50.53</ele>
        <time>2025-11-08T11:13:33.172Z</time>
      </trkpt>
      <trkpt lat="50.68097" lon="2.15207">
        <ele>50.67</ele>
        <time>2025-11-08T11:13:39.437Z</time>
      </trkpt>
      <trkpt lat="50.68097" lon="2.15207">
        <ele>50.85</ele>
        <time>2025-11-08T11:13:45.702Z</time>
      </trkpt>
      <trkpt lat="50.68097" lon="2.15207">
        <ele>51.02</ele>
        <time>2025-11-08T11:13:51.967Z</time>
      </trkpt>
      <trkpt lat="50.68097" lon="2.15207">
        <ele>51.19</ele>
        <time>2025-11-08T11:13:58.232Z</time>
      </trkpt>
      <trkpt lat="50.68085" lon="2.15223">
        <ele>51.38</ele>
        <time>2025-11-08T11:14:04.508Z</time>
      </trkpt>
      <trkpt lat="50.68079" lon="2.15229">
        <ele>51.58</ele>
        <time>2025-11-08T11:14:10.790Z</time>
      </trkpt>
      <trkpt lat="50.68066" lon="2.15255">
        <ele>51.76</ele>
        <time>2025-11-08T11:14:17.087Z</time>
      </trkpt>
      <trkpt lat="50.68053" lon="2.1525">
        <ele>51.93</ele>
        <time>2025-11-08T11:14:23.394Z</time>
      </trkpt>
      <trkpt lat="50.68051" lon="2.15276">
        <ele>51.97</ele>
        <time>2025-11-08T11:14:29.713Z</time>
      </trkpt>
      <trkpt lat="50.68058" lon="2.15321">
        <ele>51.89</ele>
        <time>2025-11-08T11:14:36.054Z</time>
      </trkpt>
      <trkpt lat="50.68053" lon="2.1533">
        <ele>51.98</ele>
        <time>2025-11-08T11:14:42.400Z</time>
      </trkpt>
      <trkpt lat="50.68041" lon="2.15347">
        <ele>52.05</ele>
        <time>2025-11-08T11:14:48.757Z</time>
      </trkpt>
      <trkpt lat="50.6803" lon="2.15364">
        <ele>52.11</ele>
        <time>2025-11-08T11:14:55.126Z</time>
      </trkpt>
      <trkpt lat="50.68012" lon="2.15388">
        <ele>52.21</ele>
        <time>2025-11-08T11:15:01.512Z</time>
      </trkpt>
      <trkpt lat="50.67995" lon="2.15411">
        <ele>52.32</ele>
        <time>2025-11-08T11:15:07.915Z</time>
      </trkpt>
      <trkpt lat="50.67984" lon="2.15442">
        <ele>52.46</ele>
        <time>2025-11-08T11:15:14.334Z</time>
      </trkpt>
      <trkpt lat="50.67984" lon="2.15442">
        <ele>52.51</ele>
        <time>2025-11-08T11:15:20.753Z</time>
      </trkpt>
      <trkpt lat="50.67984" lon="2.15442">
        <ele>52.54</ele>
        <time>2025-11-08T11:15:27.172Z</time>
      </trkpt>
      <trkpt lat="50.67984" lon="2.15442">
        <ele>52.56</ele>
        <time>2025-11-08T11:15:33.591Z</time>
      </trkpt>
      <trkpt lat="50.67976" lon="2.15464">
        <ele>52.61</ele>
        <time>2025-11-08T11:15:40.022Z</time>
      </trkpt>
      <trkpt lat="50.67967" lon="2.15487">
        <ele>52.66</ele>
        <time>2025-11-08T11:15:46.465Z</time>
      </trkpt>
      <trkpt lat="50.67955" lon="2.1551">
        <ele>52.6</ele>
        <time>2025-11-08T11:15:52.922Z</time>
      </trkpt>
      <trkpt lat="50.67943" lon="2.15532">
        <ele>52.53</ele>
        <time>2025-11-08T11:15:59.393Z</time>
      </trkpt>
      <trkpt lat="50.67943" lon="2.15533">
        <ele>52.48</ele>
        <time>2025-11-08T11:16:05.864Z</time>
      </trkpt>
      <trkpt lat="50.67943" lon="2.15533">
        <ele>52.42</ele>
        <time>2025-11-08T11:16:12.335Z</time>
      </trkpt>
      <trkpt lat="50.67943" lon="2.15533">
        <ele>52.35</ele>
        <time>2025-11-08T11:16:18.807Z</time>
      </trkpt>
      <trkpt lat="50.67937" lon="2.15542">
        <ele>52.26</ele>
        <time>2025-11-08T11:16:25.284Z</time>
      </trkpt>
      <trkpt lat="50.67931" lon="2.15568">
        <ele>52.15</ele>
        <time>2025-11-08T11:16:31.774Z</time>
      </trkpt>
      <trkpt lat="50.67918" lon="2.15597">
        <ele>52</ele>
        <time>2025-11-08T11:16:38.281Z</time>
      </trkpt>
      <trkpt lat="50.67905" lon="2.15626">
        <ele>51.87</ele>
        <time>2025-11-08T11:16:44.804Z</time>
      </trkpt>
      <trkpt lat="50.67901" lon="2.15655">
        <ele>51.77</ele>
        <time>2025-11-08T11:16:51.341Z</time>
      </trkpt>
      <trkpt lat="50.67897" lon="2.15684">
        <ele>51.73</ele>
        <time>2025-11-08T11:16:57.892Z</time>
      </trkpt>
      <trkpt lat="50.67897" lon="2.15684">
        <ele>51.66</ele>
        <time>2025-11-08T11:17:04.443Z</time>
      </trkpt>
      <trkpt lat="50.67889" lon="2.15712">
        <ele>51.72</ele>
        <time>2025-11-08T11:17:11.008Z</time>
      </trkpt>
      <trkpt lat="50.67882" lon="2.1574">
        <ele>51.69</ele>
        <time>2025-11-08T11:17:17.587Z</time>
      </trkpt>
      <trkpt lat="50.67876" lon="2.15767">
        <ele>51.59</ele>
        <time>2025-11-08T11:17:24.180Z</time>
      </trkpt>
      <trkpt lat="50.67871" lon="2.15793">
        <ele>51.43</ele>
        <time>2025-11-08T11:17:30.786Z</time>
      </trkpt>
      <trkpt lat="50.67869" lon="2.15821">
        <ele>51.32</ele>
        <time>2025-11-08T11:17:37.405Z</time>
      </trkpt>
      <trkpt lat="50.67869" lon="2.15821">
        <ele>51.29</ele>
        <time>2025-11-08T11:17:44.024Z</time>
      </trkpt>
      <trkpt lat="50.67863" lon="2.1584">
        <ele>51.26</ele>
        <time>2025-11-08T11:17:50.653Z</time>
      </trkpt>
      <trkpt lat="50.67863" lon="2.1584">
        <ele>51.26</ele>
        <time>2025-11-08T11:17:57.282Z</time>
      </trkpt>
      <trkpt lat="50.67863" lon="2.1584">
        <ele>51.29</ele>
        <time>2025-11-08T11:18:03.911Z</time>
      </trkpt>
      <trkpt lat="50.67863" lon="2.1584">
        <ele>51.33</ele>
        <time>2025-11-08T11:18:10.540Z</time>
      </trkpt>
      <trkpt lat="50.67856" lon="2.15864">
        <ele>51.41</ele>
        <time>2025-11-08T11:18:17.181Z</time>
      </trkpt>
      <trkpt lat="50.67843" lon="2.15875">
        <ele>51.5</ele>
        <time>2025-11-08T11:18:23.833Z</time>
      </trkpt>
      <trkpt lat="50.67833" lon="2.159">
        <ele>51.64</ele>
        <time>2025-11-08T11:18:30.498Z</time>
      </trkpt>
      <trkpt lat="50.67824" lon="2.15924">
        <ele>51.72</ele>
        <time>2025-11-08T11:18:37.177Z</time>
      </trkpt>
      <trkpt lat="50.67824" lon="2.15924">
        <ele>51.82</ele>
        <time>2025-11-08T11:18:43.856Z</time>
      </trkpt>
      <trkpt lat="50.67811" lon="2.15963">
        <ele>51.96</ele>
        <time>2025-11-08T11:18:50.555Z</time>
      </trkpt>
      <trkpt lat="50.67811" lon="2.15963">
        <ele>52.08</ele>
        <time>2025-11-08T11:18:57.254Z</time>
      </trkpt>
      <trkpt lat="50.67806" lon="2.15971">
        <ele>52.18</ele>
        <time>2025-11-08T11:19:03.958Z</time>
      </trkpt>
      <trkpt lat="50.67806" lon="2.15971">
        <ele>52.29</ele>
        <time>2025-11-08T11:19:10.662Z</time>
      </trkpt>
      <trkpt lat="50.67798" lon="2.15991">
        <ele>52.41</ele>
        <time>2025-11-08T11:19:17.377Z</time>
      </trkpt>
      <trkpt lat="50.67783" lon="2.16014">
        <ele>52.56</ele>
        <time>2025-11-08T11:19:24.108Z</time>
      </trkpt>
      <trkpt lat="50.67783" lon="2.16014">
        <ele>52.65</ele>
        <time>2025-11-08T11:19:30.839Z</time>
      </trkpt>
      <trkpt lat="50.6777" lon="2.16036">
        <ele>52.82</ele>
        <time>2025-11-08T11:19:37.583Z</time>
      </trkpt>
      <trkpt lat="50.67761" lon="2.16058">
        <ele>52.91</ele>
        <time>2025-11-08T11:19:44.340Z</time>
      </trkpt>
      <trkpt lat="50.67753" lon="2.16081">
        <ele>52.95</ele>
        <time>2025-11-08T11:19:51.109Z</time>
      </trkpt>
      <trkpt lat="50.67731" lon="2.16111">
        <ele>52.95</ele>
        <time>2025-11-08T11:19:57.899Z</time>
      </trkpt>
      <trkpt lat="50.67721" lon="2.16113">
        <ele>52.92</ele>
        <time>2025-11-08T11:20:04.697Z</time>
      </trkpt>
      <trkpt lat="50.6771" lon="2.16117">
        <ele>52.86</ele>
        <time>2025-11-08T11:20:11.503Z</time>
      </trkpt>
      <trkpt lat="50.67682" lon="2.1613">
        <ele>52.77</ele>
        <time>2025-11-08T11:20:18.330Z</time>
      </trkpt>
      <trkpt lat="50.67664" lon="2.16133">
        <ele>52.69</ele>
        <time>2025-11-08T11:20:25.171Z</time>
      </trkpt>
      <trkpt lat="50.67646" lon="2.16137">
        <ele>52.63</ele>
        <time>2025-11-08T11:20:32.025Z</time>
      </trkpt>
      <trkpt lat="50.6762" lon="2.16141">
        <ele>52.55</ele>
        <time>2025-11-08T11:20:38.898Z</time>
      </trkpt>
      <trkpt lat="50.67594" lon="2.16145">
        <ele>52.56</ele>
        <time>2025-11-08T11:20:45.790Z</time>
      </trkpt>
      <trkpt lat="50.67573" lon="2.16155">
        <ele>52.49</ele>
        <time>2025-11-08T11:20:52.699Z</time>
      </trkpt>
      <trkpt lat="50.67551" lon="2.16164">
        <ele>52.36</ele>
        <time>2025-11-08T11:20:59.624Z</time>
      </trkpt>
      <trkpt lat="50.6753" lon="2.16173">
        <ele>52.21</ele>
        <time>2025-11-08T11:21:06.565Z</time>
      </trkpt>
      <trkpt lat="50.67521" lon="2.1619">
        <ele>52.11</ele>
        <time>2025-11-08T11:21:13.517Z</time>
      </trkpt>
      <trkpt lat="50.67532" lon="2.1619">
        <ele>52</ele>
        <time>2025-11-08T11:21:20.476Z</time>
      </trkpt>
      <trkpt lat="50.67563" lon="2.16192">
        <ele>51.95</ele>
        <time>2025-11-08T11:21:27.458Z</time>
      </trkpt>
      <trkpt lat="50.67594" lon="2.16195">
        <ele>51.9</ele>
        <time>2025-11-08T11:21:34.463Z</time>
      </trkpt>
      <trkpt lat="50.67598" lon="2.16199">
        <ele>51.8</ele>
        <time>2025-11-08T11:21:41.472Z</time>
      </trkpt>
      <trkpt lat="50.676" lon="2.16208">
        <ele>51.7</ele>
        <time>2025-11-08T11:21:48.485Z</time>
      </trkpt>
      <trkpt lat="50.67598" lon="2.16216">
        <ele>51.62</ele>
        <time>2025-11-08T11:21:55.503Z</time>
      </trkpt>
      <trkpt lat="50.67596" lon="2.16233">
        <ele>51.56</ele>
        <time>2025-11-08T11:22:02.529Z</time>
      </trkpt>
      <trkpt lat="50.67596" lon="2.16244">
        <ele>51.51</ele>
        <time>2025-11-08T11:22:09.560Z</time>
      </trkpt>
      <trkpt lat="50.67613" lon="2.16244">
        <ele>51.43</ele>
        <time>2025-11-08T11:22:16.603Z</time>
      </trkpt>
      <trkpt lat="50.67637" lon="2.16232">
        <ele>51.34</ele>
        <time>2025-11-08T11:22:23.665Z</time>
      </trkpt>
      <trkpt lat="50.67661" lon="2.1622">
        <ele>51.33</ele>
        <time>2025-11-08T11:22:30.745Z</time>
      </trkpt>
      <trkpt lat="50.67687" lon="2.16211">
        <ele>51.34</ele>
        <time>2025-11-08T11:22:37.845Z</time>
      </trkpt>
      <trkpt lat="50.67714" lon="2.16201">
        <ele>51.37</ele>
        <time>2025-11-08T11:22:44.965Z</time>
      </trkpt>
      <trkpt lat="50.67736" lon="2.1619">
        <ele>51.43</ele>
        <time>2025-11-08T11:22:52.102Z</time>
      </trkpt>
      <trkpt lat="50.67757" lon="2.1618">
        <ele>51.43</ele>
        <time>2025-11-08T11:22:59.255Z</time>
      </trkpt>
      <trkpt lat="50.67781" lon="2.16175">
        <ele>51.43</ele>
        <time>2025-11-08T11:23:06.426Z</time>
      </trkpt>
      <trkpt lat="50.67804" lon="2.16171">
        <ele>51.5</ele>
        <time>2025-11-08T11:23:13.614Z</time>
      </trkpt>
      <trkpt lat="50.67782" lon="2.16194">
        <ele>51.53</ele>
        <time>2025-11-08T11:23:20.822Z</time>
      </trkpt>
      <trkpt lat="50.6776" lon="2.16217">
        <ele>51.65</ele>
        <time>2025-11-08T11:23:28.049Z</time>
      </trkpt>
      <trkpt lat="50.67738" lon="2.1624">
        <ele>51.71</ele>
        <time>2025-11-08T11:23:35.295Z</time>
      </trkpt>
      <trkpt lat="50.67721" lon="2.16257">
        <ele>51.81</ele>
        <time>2025-11-08T11:23:42.556Z</time>
      </trkpt>
      <trkpt lat="50.67703" lon="2.16274">
        <ele>51.92</ele>
        <time>2025-11-08T11:23:49.832Z</time>
      </trkpt>
      <trkpt lat="50.67703" lon="2.16274">
        <ele>51.98</ele>
        <time>2025-11-08T11:23:57.108Z</time>
      </trkpt>
      <trkpt lat="50.67683" lon="2.16294">
        <ele>52.03</ele>
        <time>2025-11-08T11:24:04.402Z</time>
      </trkpt>
      <trkpt lat="50.67663" lon="2.16313">
        <ele>52.14</ele>
        <time>2025-11-08T11:24:11.713Z</time>
      </trkpt>
      <trkpt lat="50.67643" lon="2.16333">
        <ele>52.27</ele>
        <time>2025-11-08T11:24:19.042Z</time>
      </trkpt>
      <trkpt lat="50.67623" lon="2.16353">
        <ele>52.33</ele>
        <time>2025-11-08T11:24:26.388Z</time>
      </trkpt>
      <trkpt lat="50.67618" lon="2.16358">
        <ele>52.34</ele>
        <time>2025-11-08T11:24:33.738Z</time>
      </trkpt>
      <trkpt lat="50.67618" lon="2.16358">
        <ele>52.33</ele>
        <time>2025-11-08T11:24:41.088Z</time>
      </trkpt>
      <trkpt lat="50.67598" lon="2.16374">
        <ele>52.2</ele>
        <time>2025-11-08T11:24:48.455Z</time>
      </trkpt>
      <trkpt lat="50.67579" lon="2.1639">
        <ele>52.1</ele>
        <time>2025-11-08T11:24:55.838Z</time>
      </trkpt>
      <trkpt lat="50.67579" lon="2.1639">
        <ele>52.04</ele>
        <time>2025-11-08T11:25:03.221Z</time>
      </trkpt>
      <trkpt lat="50.67554" lon="2.16412">
        <ele>51.92</ele>
        <time>2025-11-08T11:25:10.625Z</time>
      </trkpt>
      <trkpt lat="50.6753" lon="2.16435">
        <ele>51.76</ele>
        <time>2025-11-08T11:25:18.049Z</time>
      </trkpt>
      <trkpt lat="50.6753" lon="2.16435">
        <ele>51.7</ele>
        <time>2025-11-08T11:25:25.473Z</time>
      </trkpt>
      <trkpt lat="50.67506" lon="2.16448">
        <ele>51.64</ele>
        <time>2025-11-08T11:25:32.916Z</time>
      </trkpt>
      <trkpt lat="50.67482" lon="2.16461">
        <ele>51.59</ele>
        <time>2025-11-08T11:25:40.377Z</time>
      </trkpt>
      <trkpt lat="50.67482" lon="2.16461">
        <ele>51.55</ele>
        <time>2025-11-08T11:25:47.838Z</time>
      </trkpt>
      <trkpt lat="50.67459" lon="2.16462">
        <ele>51.55</ele>
        <time>2025-11-08T11:25:55.317Z</time>
      </trkpt>
      <trkpt lat="50.67435" lon="2.16463">
        <ele>51.57</ele>
        <time>2025-11-08T11:26:02.813Z</time>
      </trkpt>
      <trkpt lat="50.67435" lon="2.16463">
        <ele>51.55</ele>
        <time>2025-11-08T11:26:10.309Z</time>
      </trkpt>
      <trkpt lat="50.67405" lon="2.16453">
        <ele>51.63</ele>
        <time>2025-11-08T11:26:17.827Z</time>
      </trkpt>
      <trkpt lat="50.67375" lon="2.16444">
        <ele>51.68</ele>
        <time>2025-11-08T11:26:25.368Z</time>
      </trkpt>
      <trkpt lat="50.67345" lon="2.16435">
        <ele>51.63</ele>
        <time>2025-11-08T11:26:32.931Z</time>
      </trkpt>
      <trkpt lat="50.67315" lon="2.16425">
        <ele>51.66</ele>
        <time>2025-11-08T11:26:40.517Z</time>
      </trkpt>
      <trkpt lat="50.67285" lon="2.16416">
        <ele>51.78</ele>
        <time>2025-11-08T11:26:48.125Z</time>
      </trkpt>
      <trkpt lat="50.67255" lon="2.16407">
        <ele>51.78</ele>
        <time>2025-11-08T11:26:55.756Z</time>
      </trkpt>
      <trkpt lat="50.67225" lon="2.16397">
        <ele>51.79</ele>
        <time>2025-11-08T11:27:03.409Z</time>
      </trkpt>
      <trkpt lat="50.67195" lon="2.16388">
        <ele>51.75</ele>
        <time>2025-11-08T11:27:11.085Z</time>
      </trkpt>
      <trkpt lat="50.67171" lon="2.16381">
        <ele>51.7</ele>
        <time>2025-11-08T11:27:18.778Z</time>
      </trkpt>
      <trkpt lat="50.67154" lon="2.1639">
        <ele>51.78</ele>
        <time>2025-11-08T11:27:26.485Z</time>
      </trkpt>
      <trkpt lat="50.67137" lon="2.16398">
        <ele>51.92</ele>
        <time>2025-11-08T11:27:34.205Z</time>
      </trkpt>
      <trkpt lat="50.67116" lon="2.16416">
        <ele>52.13</ele>
        <time>2025-11-08T11:27:41.942Z</time>
      </trkpt>
      <trkpt lat="50.67111" lon="2.16445">
        <ele>52.35</ele>
        <time>2025-11-08T11:27:49.693Z</time>
      </trkpt>
      <trkpt lat="50.67107" lon="2.16474">
        <ele>52.56</ele>
        <time>2025-11-08T11:27:57.458Z</time>
      </trkpt>
      <trkpt lat="50.67082" lon="2.16488">
        <ele>52.81</ele>
        <time>2025-11-08T11:28:05.243Z</time>
      </trkpt>
      <trkpt lat="50.67057" lon="2.16502">
        <ele>53.13</ele>
        <time>2025-11-08T11:28:13.047Z</time>
      </trkpt>
      <trkpt lat="50.67032" lon="2.16516">
        <ele>53.44</ele>
        <time>2025-11-08T11:28:20.871Z</time>
      </trkpt>
      <trkpt lat="50.67019" lon="2.16508">
        <ele>53.75</ele>
        <time>2025-11-08T11:28:28.705Z</time>
      </trkpt>
      <trkpt lat="50.66998" lon="2.16506">
        <ele>54.09</ele>
        <time>2025-11-08T11:28:36.555Z</time>
      </trkpt>
      <trkpt lat="50.66976" lon="2.16504">
        <ele>54.46</ele>
        <time>2025-11-08T11:28:44.421Z</time>
      </trkpt>
      <trkpt lat="50.66955" lon="2.16501">
        <ele>54.95</ele>
        <time>2025-11-08T11:28:52.303Z</time>
      </trkpt>
      <trkpt lat="50.66944" lon="2.16497">
        <ele>55.43</ele>
        <time>2025-11-08T11:29:00.193Z</time>
      </trkpt>
      <trkpt lat="50.66935" lon="2.16523">
        <ele>55.95</ele>
        <time>2025-11-08T11:29:08.096Z</time>
      </trkpt>
      <trkpt lat="50.66927" lon="2.1654">
        <ele>56.51</ele>
        <time>2025-11-08T11:29:16.009Z</time>
      </trkpt>
      <trkpt lat="50.66922" lon="2.16551">
        <ele>57.09</ele>
        <time>2025-11-08T11:29:23.928Z</time>
      </trkpt>
      <trkpt lat="50.66918" lon="2.16564">
        <ele>57.73</ele>
        <time>2025-11-08T11:29:31.854Z</time>
      </trkpt>
      <trkpt lat="50.66914" lon="2.16574">
        <ele>58.32</ele>
        <time>2025-11-08T11:29:39.786Z</time>
      </trkpt>
      <trkpt lat="50.66912" lon="2.16596">
        <ele>58.95</ele>
        <time>2025-11-08T11:29:47.728Z</time>
      </trkpt>
      <trkpt lat="50.66915" lon="2.1664">
        <ele>59.71</ele>
        <time>2025-11-08T11:29:55.691Z</time>
      </trkpt>
      <trkpt lat="50.66918" lon="2.16684">
        <ele>60.32</ele>
        <time>2025-11-08T11:30:03.674Z</time>
      </trkpt>
      <trkpt lat="50.66915" lon="2.16726">
        <ele>60.8</ele>
        <time>2025-11-08T11:30:11.677Z</time>
      </trkpt>
      <trkpt lat="50.66912" lon="2.16768">
        <ele>61.41</ele>
        <time>2025-11-08T11:30:19.700Z</time>
      </trkpt>
      <trkpt lat="50.66914" lon="2.1681">
        <ele>62.01</ele>
        <time>2025-11-08T11:30:27.743Z</time>
      </trkpt>
      <trkpt lat="50.66896" lon="2.16825">
        <ele>62.33</ele>
        <time>2025-11-08T11:30:35.801Z</time>
      </trkpt>
      <trkpt lat="50.66877" lon="2.16841">
        <ele>62.46</ele>
        <time>2025-11-08T11:30:43.874Z</time>
      </trkpt>
      <trkpt lat="50.66854" lon="2.16853">
        <ele>62.44</ele>
        <time>2025-11-08T11:30:51.965Z</time>
      </trkpt>
      <trkpt lat="50.66837" lon="2.16873">
        <ele>62.5</ele>
        <time>2025-11-08T11:31:00.072Z</time>
      </trkpt>
      <trkpt lat="50.66819" lon="2.16892">
        <ele>62.59</ele>
        <time>2025-11-08T11:31:08.194Z</time>
      </trkpt>
      <trkpt lat="50.66804" lon="2.16903">
        <ele>62.68</ele>
        <time>2025-11-08T11:31:16.329Z</time>
      </trkpt>
      <trkpt lat="50.66786" lon="2.16906">
        <ele>62.71</ele>
        <time>2025-11-08T11:31:24.477Z</time>
      </trkpt>
      <trkpt lat="50.66768" lon="2.16909">
        <ele>62.82</ele>
        <time>2025-11-08T11:31:32.638Z</time>
      </trkpt>
      <trkpt lat="50.66757" lon="2.16942">
        <ele>62.94</ele>
        <time>2025-11-08T11:31:40.817Z</time>
      </trkpt>
      <trkpt lat="50.66746" lon="2.16975">
        <ele>63.14</ele>
        <time>2025-11-08T11:31:49.013Z</time>
      </trkpt>
      <trkpt lat="50.66736" lon="2.17008">
        <ele>63.32</ele>
        <time>2025-11-08T11:31:57.226Z</time>
      </trkpt>
      <trkpt lat="50.66721" lon="2.17042">
        <ele>63.42</ele>
        <time>2025-11-08T11:32:05.458Z</time>
      </trkpt>
      <trkpt lat="50.66707" lon="2.17077">
        <ele>63.45</ele>
        <time>2025-11-08T11:32:13.710Z</time>
      </trkpt>
      <trkpt lat="50.66693" lon="2.17111">
        <ele>63.48</ele>
        <time>2025-11-08T11:32:21.981Z</time>
      </trkpt>
      <trkpt lat="50.66682" lon="2.17149">
        <ele>63.56</ele>
        <time>2025-11-08T11:32:30.271Z</time>
      </trkpt>
      <trkpt lat="50.66671" lon="2.17186">
        <ele>63.58</ele>
        <time>2025-11-08T11:32:38.580Z</time>
      </trkpt>
      <trkpt lat="50.66667" lon="2.17191">
        <ele>63.66</ele>
        <time>2025-11-08T11:32:46.893Z</time>
      </trkpt>
      <trkpt lat="50.66656" lon="2.17205">
        <ele>63.79</ele>
        <time>2025-11-08T11:32:55.216Z</time>
      </trkpt>
      <trkpt lat="50.66652" lon="2.17222">
        <ele>63.93</ele>
        <time>2025-11-08T11:33:03.548Z</time>
      </trkpt>
      <trkpt lat="50.6665" lon="2.1727">
        <ele>64.05</ele>
        <time>2025-11-08T11:33:11.902Z</time>
      </trkpt>
      <trkpt lat="50.66648" lon="2.17317">
        <ele>64.15</ele>
        <time>2025-11-08T11:33:20.278Z</time>
      </trkpt>
      <trkpt lat="50.66641" lon="2.1736">
        <ele>64.22</ele>
        <time>2025-11-08T11:33:28.675Z</time>
      </trkpt>
      <trkpt lat="50.66641" lon="2.1736">
        <ele>64.34</ele>
        <time>2025-11-08T11:33:37.072Z</time>
      </trkpt>
      <trkpt lat="50.66635" lon="2.17395">
        <ele>64.54</ele>
        <time>2025-11-08T11:33:45.486Z</time>
      </trkpt>
      <trkpt lat="50.66628" lon="2.17431">
        <ele>64.75</ele>
        <time>2025-11-08T11:33:53.917Z</time>
      </trkpt>
      <trkpt lat="50.66618" lon="2.17476">
        <ele>64.95</ele>
        <time>2025-11-08T11:34:02.371Z</time>
      </trkpt>
      <trkpt lat="50.66601" lon="2.17508">
        <ele>65.23</ele>
        <time>2025-11-08T11:34:10.844Z</time>
      </trkpt>
      <trkpt lat="50.66587" lon="2.1753">
        <ele>65.47</ele>
        <time>2025-11-08T11:34:19.332Z</time>
      </trkpt>
      <trkpt lat="50.66573" lon="2.17553">
        <ele>65.82</ele>
        <time>2025-11-08T11:34:27.835Z</time>
      </trkpt>
      <trkpt lat="50.66557" lon="2.17571">
        <ele>66.11</ele>
        <time>2025-11-08T11:34:36.352Z</time>
      </trkpt>
      <trkpt lat="50.6654" lon="2.17589">
        <ele>66.57</ele>
        <time>2025-11-08T11:34:44.884Z</time>
      </trkpt>
      <trkpt lat="50.6654" lon="2.17589">
        <ele>67.02</ele>
        <time>2025-11-08T11:34:53.416Z</time>
      </trkpt>
      <trkpt lat="50.66524" lon="2.17607">
        <ele>67.54</ele>
        <time>2025-11-08T11:35:01.962Z</time>
      </trkpt>
      <trkpt lat="50.66508" lon="2.17624">
        <ele>68.14</ele>
        <time>2025-11-08T11:35:10.522Z</time>
      </trkpt>
      <trkpt lat="50.665" lon="2.17637">
        <ele>68.84</ele>
        <time>2025-11-08T11:35:19.091Z</time>
      </trkpt>
      <trkpt lat="50.66491" lon="2.17658">
        <ele>69.66</ele>
        <time>2025-11-08T11:35:27.672Z</time>
      </trkpt>
      <trkpt lat="50.66485" lon="2.17682">
        <ele>70.51</ele>
        <time>2025-11-08T11:35:36.265Z</time>
      </trkpt>
      <trkpt lat="50.66483" lon="2.17705">
        <ele>71.44</ele>
        <time>2025-11-08T11:35:44.869Z</time>
      </trkpt>
      <trkpt lat="50.66483" lon="2.17705">
        <ele>72.5</ele>
        <time>2025-11-08T11:35:53.473Z</time>
      </trkpt>
      <trkpt lat="50.6648" lon="2.17748">
        <ele>73.66</ele>
        <time>2025-11-08T11:36:02.097Z</time>
      </trkpt>
      <trkpt lat="50.66489" lon="2.1778">
        <ele>74.98</ele>
        <time>2025-11-08T11:36:10.737Z</time>
      </trkpt>
      <trkpt lat="50.66491" lon="2.17802">
        <ele>76.43</ele>
        <time>2025-11-08T11:36:19.387Z</time>
      </trkpt>
      <trkpt lat="50.66512" lon="2.17813">
        <ele>78.03</ele>
        <time>2025-11-08T11:36:28.053Z</time>
      </trkpt>
      <trkpt lat="50.66532" lon="2.17823">
        <ele>79.77</ele>
        <time>2025-11-08T11:36:36.735Z</time>
      </trkpt>
      <trkpt lat="50.6656" lon="2.17833">
        <ele>81.62</ele>
        <time>2025-11-08T11:36:45.438Z</time>
      </trkpt>
      <trkpt lat="50.66588" lon="2.17843">
        <ele>83.55</ele>
        <time>2025-11-08T11:36:54.162Z</time>
      </trkpt>
      <trkpt lat="50.66609" lon="2.17853">
        <ele>85.53</ele>
        <time>2025-11-08T11:37:02.902Z</time>
      </trkpt>
      <trkpt lat="50.66631" lon="2.17863">
        <ele>87.6</ele>
        <time>2025-11-08T11:37:11.659Z</time>
      </trkpt>
      <trkpt lat="50.66652" lon="2.17873">
        <ele>89.73</ele>
        <time>2025-11-08T11:37:20.432Z</time>
      </trkpt>
      <trkpt lat="50.66663" lon="2.17879">
        <ele>91.84</ele>
        <time>2025-11-08T11:37:29.214Z</time>
      </trkpt>
      <trkpt lat="50.66687" lon="2.17894">
        <ele>94.05</ele>
        <time>2025-11-08T11:37:38.014Z</time>
      </trkpt>
      <trkpt lat="50.6671" lon="2.17908">
        <ele>96.24</ele>
        <time>2025-11-08T11:37:46.833Z</time>
      </trkpt>
      <trkpt lat="50.66734" lon="2.17922">
        <ele>98.35</ele>
        <time>2025-11-08T11:37:55.670Z</time>
      </trkpt>
      <trkpt lat="50.66759" lon="2.17946">
        <ele>100.46</ele>
        <time>2025-11-08T11:38:04.529Z</time>
      </trkpt>
      <trkpt lat="50.66783" lon="2.17971">
        <ele>102.62</ele>
        <time>2025-11-08T11:38:13.409Z</time>
      </trkpt>
      <trkpt lat="50.66808" lon="2.17995">
        <ele>104.72</ele>
        <time>2025-11-08T11:38:22.311Z</time>
      </trkpt>
      <trkpt lat="50.66833" lon="2.1802">
        <ele>106.67</ele>
        <time>2025-11-08T11:38:31.235Z</time>
      </trkpt>
      <trkpt lat="50.66858" lon="2.18044">
        <ele>108.56</ele>
        <time>2025-11-08T11:38:40.180Z</time>
      </trkpt>
      <trkpt lat="50.6688" lon="2.18069">
        <ele>110.4</ele>
        <time>2025-11-08T11:38:49.145Z</time>
      </trkpt>
      <trkpt lat="50.66901" lon="2.18094">
        <ele>112.09</ele>
        <time>2025-11-08T11:38:58.129Z</time>
      </trkpt>
      <trkpt lat="50.6692" lon="2.18056">
        <ele>113.54</ele>
        <time>2025-11-08T11:39:07.135Z</time>
      </trkpt>
      <trkpt lat="50.66939" lon="2.18018">
        <ele>114.9</ele>
        <time>2025-11-08T11:39:16.164Z</time>
      </trkpt>
      <trkpt lat="50.66957" lon="2.17981">
        <ele>116.14</ele>
        <time>2025-11-08T11:39:25.215Z</time>
      </trkpt>
      <trkpt lat="50.66976" lon="2.17943">
        <ele>117.25</ele>
        <time>2025-11-08T11:39:34.288Z</time>
      </trkpt>
      <trkpt lat="50.66976" lon="2.17943">
        <ele>118.04</ele>
        <time>2025-11-08T11:39:43.361Z</time>
      </trkpt>
      <trkpt lat="50.66994" lon="2.17908">
        <ele>118.77</ele>
        <time>2025-11-08T11:39:52.455Z</time>
      </trkpt>
      <trkpt lat="50.67011" lon="2.17872">
        <ele>119.24</ele>
        <time>2025-11-08T11:40:01.570Z</time>
      </trkpt>
      <trkpt lat="50.67029" lon="2.17837">
        <ele>119.5</ele>
        <time>2025-11-08T11:40:10.707Z</time>
      </trkpt>
      <trkpt lat="50.67047" lon="2.17801">
        <ele>119.55</ele>
        <time>2025-11-08T11:40:19.865Z</time>
      </trkpt>
      <trkpt lat="50.67065" lon="2.17765">
        <ele>119.33</ele>
        <time>2025-11-08T11:40:29.044Z</time>
      </trkpt>
      <trkpt lat="50.67082" lon="2.1773">
        <ele>118.93</ele>
        <time>2025-11-08T11:40:38.244Z</time>
      </trkpt>
      <trkpt lat="50.671" lon="2.17694">
        <ele>118.25</ele>
        <time>2025-11-08T11:40:47.465Z</time>
      </trkpt>
      <trkpt lat="50.67118" lon="2.17658">
        <ele>117.3</ele>
        <time>2025-11-08T11:40:56.707Z</time>
      </trkpt>
      <trkpt lat="50.67135" lon="2.17623">
        <ele>116.11</ele>
        <time>2025-11-08T11:41:05.970Z</time>
      </trkpt>
      <trkpt lat="50.67153" lon="2.17588">
        <ele>114.79</ele>
        <time>2025-11-08T11:41:15.254Z</time>
      </trkpt>
      <trkpt lat="50.67169" lon="2.17555">
        <ele>113.33</ele>
        <time>2025-11-08T11:41:24.557Z</time>
      </trkpt>
      <trkpt lat="50.67182" lon="2.17546">
        <ele>111.81</ele>
        <time>2025-11-08T11:41:33.871Z</time>
      </trkpt>
      <trkpt lat="50.67182" lon="2.17546">
        <ele>110.23</ele>
        <time>2025-11-08T11:41:43.185Z</time>
      </trkpt>
      <trkpt lat="50.67172" lon="2.17505">
        <ele>108.44</ele>
        <time>2025-11-08T11:41:52.519Z</time>
      </trkpt>
      <trkpt lat="50.67163" lon="2.17463">
        <ele>106.56</ele>
        <time>2025-11-08T11:42:01.874Z</time>
      </trkpt>
      <trkpt lat="50.67161" lon="2.17414">
        <ele>104.63</ele>
        <time>2025-11-08T11:42:11.252Z</time>
      </trkpt>
      <trkpt lat="50.67158" lon="2.17366">
        <ele>102.65</ele>
        <time>2025-11-08T11:42:20.652Z</time>
      </trkpt>
      <trkpt lat="50.67154" lon="2.17343">
        <ele>100.82</ele>
        <time>2025-11-08T11:42:30.064Z</time>
      </trkpt>
      <trkpt lat="50.67143" lon="2.17304">
        <ele>99</ele>
        <time>2025-11-08T11:42:39.495Z</time>
      </trkpt>
      <trkpt lat="50.6713" lon="2.17272">
        <ele>97.29</ele>
        <time>2025-11-08T11:42:48.944Z</time>
      </trkpt>
      <trkpt lat="50.67117" lon="2.17239">
        <ele>95.61</ele>
        <time>2025-11-08T11:42:58.411Z</time>
      </trkpt>
      <trkpt lat="50.67103" lon="2.17207">
        <ele>94.12</ele>
        <time>2025-11-08T11:43:07.896Z</time>
      </trkpt>
      <trkpt lat="50.6709" lon="2.17175">
        <ele>92.81</ele>
        <time>2025-11-08T11:43:17.399Z</time>
      </trkpt>
      <trkpt lat="50.67105" lon="2.17177">
        <ele>91.69</ele>
        <time>2025-11-08T11:43:26.913Z</time>
      </trkpt>
      <trkpt lat="50.67105" lon="2.17177">
        <ele>90.77</ele>
        <time>2025-11-08T11:43:36.427Z</time>
      </trkpt>
      <trkpt lat="50.67109" lon="2.1718">
        <ele>90.01</ele>
        <time>2025-11-08T11:43:45.945Z</time>
      </trkpt>
      <trkpt lat="50.67125" lon="2.17174">
        <ele>89.43</ele>
        <time>2025-11-08T11:43:55.475Z</time>
      </trkpt>
      <trkpt lat="50.67141" lon="2.17169">
        <ele>89.01</ele>
        <time>2025-11-08T11:44:05.017Z</time>
      </trkpt>
      <trkpt lat="50.67163" lon="2.17152">
        <ele>88.82</ele>
        <time>2025-11-08T11:44:14.576Z</time>
      </trkpt>
      <trkpt lat="50.67184" lon="2.17134">
        <ele>88.85</ele>
        <time>2025-11-08T11:44:24.153Z</time>
      </trkpt>
      <trkpt lat="50.67208" lon="2.17115">
        <ele>89.08</ele>
        <time>2025-11-08T11:44:33.750Z</time>
      </trkpt>
      <trkpt lat="50.67224" lon="2.17101">
        <ele>89.38</ele>
        <time>2025-11-08T11:44:43.360Z</time>
      </trkpt>
      <trkpt lat="50.6724" lon="2.17087">
        <ele>89.94</ele>
        <time>2025-11-08T11:44:52.984Z</time>
      </trkpt>
      <trkpt lat="50.67264" lon="2.17081">
        <ele>90.63</ele>
        <time>2025-11-08T11:45:02.625Z</time>
      </trkpt>
      <trkpt lat="50.67294" lon="2.17087">
        <ele>91.47</ele>
        <time>2025-11-08T11:45:12.289Z</time>
      </trkpt>
      <trkpt lat="50.6732" lon="2.17097">
        <ele>92.4</ele>
        <time>2025-11-08T11:45:21.972Z</time>
      </trkpt>
      <trkpt lat="50.67346" lon="2.17107">
        <ele>93.44</ele>
        <time>2025-11-08T11:45:31.675Z</time>
      </trkpt>
      <trkpt lat="50.67373" lon="2.17116">
        <ele>94.52</ele>
        <time>2025-11-08T11:45:41.398Z</time>
      </trkpt>
      <trkpt lat="50.67399" lon="2.17126">
        <ele>95.66</ele>
        <time>2025-11-08T11:45:51.141Z</time>
      </trkpt>
      <trkpt lat="50.67419" lon="2.17142">
        <ele>96.86</ele>
        <time>2025-11-08T11:46:00.900Z</time>
      </trkpt>
      <trkpt lat="50.67439" lon="2.17159">
        <ele>98.07</ele>
        <time>2025-11-08T11:46:10.676Z</time>
      </trkpt>
      <trkpt lat="50.67439" lon="2.17159">
        <ele>99.22</ele>
        <time>2025-11-08T11:46:20.452Z</time>
      </trkpt>
      <trkpt lat="50.67439" lon="2.17159">
        <ele>100.37</ele>
        <time>2025-11-08T11:46:30.228Z</time>
      </trkpt>
      <trkpt lat="50.67439" lon="2.17159">
        <ele>101.51</ele>
        <time>2025-11-08T11:46:40.004Z</time>
      </trkpt>
      <trkpt lat="50.67439" lon="2.17159">
        <ele>102.64</ele>
        <time>2025-11-08T11:46:49.780Z</time>
      </trkpt>
      <trkpt lat="50.6746" lon="2.17176">
        <ele>103.82</ele>
        <time>2025-11-08T11:46:59.573Z</time>
      </trkpt>
      <trkpt lat="50.6748" lon="2.17192">
        <ele>104.97</ele>
        <time>2025-11-08T11:47:09.383Z</time>
      </trkpt>
      <trkpt lat="50.67501" lon="2.17211">
        <ele>106.09</ele>
        <time>2025-11-08T11:47:19.211Z</time>
      </trkpt>
      <trkpt lat="50.67522" lon="2.1723">
        <ele>107.17</ele>
        <time>2025-11-08T11:47:29.056Z</time>
      </trkpt>
      <trkpt lat="50.67543" lon="2.17248">
        <ele>108.18</ele>
        <time>2025-11-08T11:47:38.919Z</time>
      </trkpt>
      <trkpt lat="50.67567" lon="2.17265">
        <ele>109.11</ele>
        <time>2025-11-08T11:47:48.801Z</time>
      </trkpt>
      <trkpt lat="50.67591" lon="2.17283">
        <ele>110.01</ele>
        <time>2025-11-08T11:47:58.703Z</time>
      </trkpt>
      <trkpt lat="50.67615" lon="2.173">
        <ele>110.85</ele>
        <time>2025-11-08T11:48:08.624Z</time>
      </trkpt>
      <trkpt lat="50.67639" lon="2.17317">
        <ele>111.56</ele>
        <time>2025-11-08T11:48:18.565Z</time>
      </trkpt>
      <trkpt lat="50.67653" lon="2.17331">
        <ele>112.23</ele>
        <time>2025-11-08T11:48:28.518Z</time>
      </trkpt>
      <trkpt lat="50.67667" lon="2.17345">
        <ele>112.84</ele>
        <time>2025-11-08T11:48:38.483Z</time>
      </trkpt>
      <trkpt lat="50.67691" lon="2.17373">
        <ele>113.49</ele>
        <time>2025-11-08T11:48:48.470Z</time>
      </trkpt>
      <trkpt lat="50.67704" lon="2.17392">
        <ele>114.08</ele>
        <time>2025-11-08T11:48:58.470Z</time>
      </trkpt>
      <trkpt lat="50.67716" lon="2.17411">
        <ele>114.6</ele>
        <time>2025-11-08T11:49:08.483Z</time>
      </trkpt>
      <trkpt lat="50.67734" lon="2.17428">
        <ele>115.05</ele>
        <time>2025-11-08T11:49:18.511Z</time>
      </trkpt>
      <trkpt lat="50.67751" lon="2.17446">
        <ele>115.42</ele>
        <time>2025-11-08T11:49:28.554Z</time>
      </trkpt>
      <trkpt lat="50.67774" lon="2.17462">
        <ele>115.69</ele>
        <time>2025-11-08T11:49:38.615Z</time>
      </trkpt>
      <trkpt lat="50.67798" lon="2.17478">
        <ele>116.03</ele>
        <time>2025-11-08T11:49:48.695Z</time>
      </trkpt>
      <trkpt lat="50.67815" lon="2.17486">
        <ele>116.39</ele>
        <time>2025-11-08T11:49:58.789Z</time>
      </trkpt>
      <trkpt lat="50.67831" lon="2.17487">
        <ele>116.79</ele>
        <time>2025-11-08T11:50:08.894Z</time>
      </trkpt>
      <trkpt lat="50.67847" lon="2.17489">
        <ele>117.22</ele>
        <time>2025-11-08T11:50:19.011Z</time>
      </trkpt>
      <trkpt lat="50.67872" lon="2.17482">
        <ele>117.63</ele>
        <time>2025-11-08T11:50:29.146Z</time>
      </trkpt>
      <trkpt lat="50.67896" lon="2.17476">
        <ele>118.1</ele>
        <time>2025-11-08T11:50:39.299Z</time>
      </trkpt>
      <trkpt lat="50.6792" lon="2.17469">
        <ele>118.6</ele>
        <time>2025-11-08T11:50:49.470Z</time>
      </trkpt>
      <trkpt lat="50.67946" lon="2.17478">
        <ele>119.21</ele>
        <time>2025-11-08T11:50:59.661Z</time>
      </trkpt>
      <trkpt lat="50.67963" lon="2.1749">
        <ele>119.82</ele>
        <time>2025-11-08T11:51:09.866Z</time>
      </trkpt>
      <trkpt lat="50.6798" lon="2.17501">
        <ele>120.46</ele>
        <time>2025-11-08T11:51:20.084Z</time>
      </trkpt>
      <trkpt lat="50.67993" lon="2.17516">
        <ele>121.06</ele>
        <time>2025-11-08T11:51:30.314Z</time>
      </trkpt>
      <trkpt lat="50.68015" lon="2.17533">
        <ele>121.71</ele>
        <time>2025-11-08T11:51:40.562Z</time>
      </trkpt>
      <trkpt lat="50.68036" lon="2.17549">
        <ele>122.37</ele>
        <time>2025-11-08T11:51:50.827Z</time>
      </trkpt>
      <trkpt lat="50.68054" lon="2.17561">
        <ele>123.04</ele>
        <time>2025-11-08T11:52:01.107Z</time>
      </trkpt>
      <trkpt lat="50.68073" lon="2.17574">
        <ele>123.73</ele>
        <time>2025-11-08T11:52:11.401Z</time>
      </trkpt>
      <trkpt lat="50.68094" lon="2.17583">
        <ele>124.45</ele>
        <time>2025-11-08T11:52:21.712Z</time>
      </trkpt>
      <trkpt lat="50.68105" lon="2.17587">
        <ele>125.17</ele>
        <time>2025-11-08T11:52:32.031Z</time>
      </trkpt>
      <trkpt lat="50.68109" lon="2.17587">
        <ele>125.87</ele>
        <time>2025-11-08T11:52:42.353Z</time>
      </trkpt>
      <trkpt lat="50.68133" lon="2.17555">
        <ele>126.58</ele>
        <time>2025-11-08T11:52:52.698Z</time>
      </trkpt>
      <trkpt lat="50.68148" lon="2.17532">
        <ele>127.27</ele>
        <time>2025-11-08T11:53:03.058Z</time>
      </trkpt>
      <trkpt lat="50.68163" lon="2.1751">
        <ele>127.99</ele>
        <time>2025-11-08T11:53:13.433Z</time>
      </trkpt>
      <trkpt lat="50.68178" lon="2.17489">
        <ele>128.74</ele>
        <time>2025-11-08T11:53:23.823Z</time>
      </trkpt>
      <trkpt lat="50.68193" lon="2.17465">
        <ele>129.47</ele>
        <time>2025-11-08T11:53:34.229Z</time>
      </trkpt>
      <trkpt lat="50.68209" lon="2.17446">
        <ele>130.13</ele>
        <time>2025-11-08T11:53:44.650Z</time>
      </trkpt>
      <trkpt lat="50.68225" lon="2.17426">
        <ele>130.76</ele>
        <time>2025-11-08T11:53:55.085Z</time>
      </trkpt>
      <trkpt lat="50.68248" lon="2.17408">
        <ele>131.43</ele>
        <time>2025-11-08T11:54:05.539Z</time>
      </trkpt>
      <trkpt lat="50.68271" lon="2.17391">
        <ele>132.02</ele>
        <time>2025-11-08T11:54:16.012Z</time>
      </trkpt>
      <trkpt lat="50.68294" lon="2.17373">
        <ele>132.56</ele>
        <time>2025-11-08T11:54:26.504Z</time>
      </trkpt>
      <trkpt lat="50.6832" lon="2.17353">
        <ele>133.09</ele>
        <time>2025-11-08T11:54:37.017Z</time>
      </trkpt>
      <trkpt lat="50.68347" lon="2.17334">
        <ele>133.59</ele>
        <time>2025-11-08T11:54:47.552Z</time>
      </trkpt>
      <trkpt lat="50.68367" lon="2.17321">
        <ele>133.99</ele>
        <time>2025-11-08T11:54:58.102Z</time>
      </trkpt>
      <trkpt lat="50.68377" lon="2.17313">
        <ele>134.39</ele>
        <time>2025-11-08T11:55:08.661Z</time>
      </trkpt>
      <trkpt lat="50.68401" lon="2.17298">
        <ele>134.73</ele>
        <time>2025-11-08T11:55:19.239Z</time>
      </trkpt>
      <trkpt lat="50.68414" lon="2.17291">
        <ele>135.08</ele>
        <time>2025-11-08T11:55:29.827Z</time>
      </trkpt>
      <trkpt lat="50.68442" lon="2.17274">
        <ele>135.45</ele>
        <time>2025-11-08T11:55:40.437Z</time>
      </trkpt>
      <trkpt lat="50.68466" lon="2.1726">
        <ele>135.73</ele>
        <time>2025-11-08T11:55:51.066Z</time>
      </trkpt>
      <trkpt lat="50.6849" lon="2.17245">
        <ele>135.99</ele>
        <time>2025-11-08T11:56:01.714Z</time>
      </trkpt>
      <trkpt lat="50.68515" lon="2.17231">
        <ele>136.12</ele>
        <time>2025-11-08T11:56:12.381Z</time>
      </trkpt>
      <trkpt lat="50.68534" lon="2.17222">
        <ele>136.18</ele>
        <time>2025-11-08T11:56:23.063Z</time>
      </trkpt>
      <trkpt lat="50.68553" lon="2.17214">
        <ele>136.23</ele>
        <time>2025-11-08T11:56:33.760Z</time>
      </trkpt>
      <trkpt lat="50.68573" lon="2.17199">
        <ele>136.3</ele>
        <time>2025-11-08T11:56:44.472Z</time>
      </trkpt>
      <trkpt lat="50.686" lon="2.1718">
        <ele>136.33</ele>
        <time>2025-11-08T11:56:55.207Z</time>
      </trkpt>
      <trkpt lat="50.6862" lon="2.17167">
        <ele>136.34</ele>
        <time>2025-11-08T11:57:05.957Z</time>
      </trkpt>
      <trkpt lat="50.68635" lon="2.17158">
        <ele>136.36</ele>
        <time>2025-11-08T11:57:16.719Z</time>
      </trkpt>
      <trkpt lat="50.68643" lon="2.17149">
        <ele>136.34</ele>
        <time>2025-11-08T11:57:27.488Z</time>
      </trkpt>
      <trkpt lat="50.68667" lon="2.17131">
        <ele>136.28</ele>
        <time>2025-11-08T11:57:38.277Z</time>
      </trkpt>
      <trkpt lat="50.68691" lon="2.17113">
        <ele>136.16</ele>
        <time>2025-11-08T11:57:49.085Z</time>
      </trkpt>
      <trkpt lat="50.68703" lon="2.17109">
        <ele>136.1</ele>
        <time>2025-11-08T11:57:59.903Z</time>
      </trkpt>
      <trkpt lat="50.6871" lon="2.17107">
        <ele>136.06</ele>
        <time>2025-11-08T11:58:10.725Z</time>
      </trkpt>
      <trkpt lat="50.68706" lon="2.17126">
        <ele>136.06</ele>
        <time>2025-11-08T11:58:21.557Z</time>
      </trkpt>
      <trkpt lat="50.68697" lon="2.17149">
        <ele>136.09</ele>
        <time>2025-11-08T11:58:32.402Z</time>
      </trkpt>
      <trkpt lat="50.68693" lon="2.17182">
        <ele>136.08</ele>
        <time>2025-11-08T11:58:43.262Z</time>
      </trkpt>
      <trkpt lat="50.68697" lon="2.17225">
        <ele>135.97</ele>
        <time>2025-11-08T11:58:54.142Z</time>
      </trkpt>
      <trkpt lat="50.68701" lon="2.17268">
        <ele>135.86</ele>
        <time>2025-11-08T11:59:05.043Z</time>
      </trkpt>
      <trkpt lat="50.68707" lon="2.17312">
        <ele>135.82</ele>
        <time>2025-11-08T11:59:15.964Z</time>
      </trkpt>
      <trkpt lat="50.68712" lon="2.17355">
        <ele>135.93</ele>
        <time>2025-11-08T11:59:26.906Z</time>
      </trkpt>
      <trkpt lat="50.68712" lon="2.17381">
        <ele>136.03</ele>
        <time>2025-11-08T11:59:37.860Z</time>
      </trkpt>
      <trkpt lat="50.68711" lon="2.17427">
        <ele>136.18</ele>
        <time>2025-11-08T11:59:48.836Z</time>
      </trkpt>
      <trkpt lat="50.6871" lon="2.17474">
        <ele>136.08</ele>
        <time>2025-11-08T11:59:59.833Z</time>
      </trkpt>
      <trkpt lat="50.68706" lon="2.17501">
        <ele>135.94</ele>
        <time>2025-11-08T12:00:10.844Z</time>
      </trkpt>
      <trkpt lat="50.68701" lon="2.17529">
        <ele>135.82</ele>
        <time>2025-11-08T12:00:21.868Z</time>
      </trkpt>
      <trkpt lat="50.68693" lon="2.1756">
        <ele>135.7</ele>
        <time>2025-11-08T12:00:32.908Z</time>
      </trkpt>
      <trkpt lat="50.68684" lon="2.17592">
        <ele>135.66</ele>
        <time>2025-11-08T12:00:43.964Z</time>
      </trkpt>
      <trkpt lat="50.68672" lon="2.17628">
        <ele>135.54</ele>
        <time>2025-11-08T12:00:55.039Z</time>
      </trkpt>
      <trkpt lat="50.68661" lon="2.17664">
        <ele>135.42</ele>
        <time>2025-11-08T12:01:06.133Z</time>
      </trkpt>
      <trkpt lat="50.68656" lon="2.17675">
        <ele>135.25</ele>
        <time>2025-11-08T12:01:17.233Z</time>
      </trkpt>
      <trkpt lat="50.68652" lon="2.17695">
        <ele>135.07</ele>
        <time>2025-11-08T12:01:28.342Z</time>
      </trkpt>
      <trkpt lat="50.68652" lon="2.17695">
        <ele>134.83</ele>
        <time>2025-11-08T12:01:39.451Z</time>
      </trkpt>
      <trkpt lat="50.68647" lon="2.17718">
        <ele>134.58</ele>
        <time>2025-11-08T12:01:50.572Z</time>
      </trkpt>
      <trkpt lat="50.68641" lon="2.17742">
        <ele>134.26</ele>
        <time>2025-11-08T12:02:01.705Z</time>
      </trkpt>
      <trkpt lat="50.68641" lon="2.17742">
        <ele>133.93</ele>
        <time>2025-11-08T12:02:12.838Z</time>
      </trkpt>
      <trkpt lat="50.68633" lon="2.17774">
        <ele>133.52</ele>
        <time>2025-11-08T12:02:23.987Z</time>
      </trkpt>
      <trkpt lat="50.68628" lon="2.17793">
        <ele>133.07</ele>
        <time>2025-11-08T12:02:35.146Z</time>
      </trkpt>
      <trkpt lat="50.68628" lon="2.17812">
        <ele>132.6</ele>
        <time>2025-11-08T12:02:46.314Z</time>
      </trkpt>
      <trkpt lat="50.68628" lon="2.17813">
        <ele>132.17</ele>
        <time>2025-11-08T12:02:57.482Z</time>
      </trkpt>
      <trkpt lat="50.68628" lon="2.17813">
        <ele>131.72</ele>
        <time>2025-11-08T12:03:08.650Z</time>
      </trkpt>
      <trkpt lat="50.68628" lon="2.17813">
        <ele>132.17</ele>
        <time>2025-11-08T12:03:19.818Z</time>
      </trkpt>
      <trkpt lat="50.68633" lon="2.17847">
        <ele>130.73</ele>
        <time>2025-11-08T12:03:31.002Z</time>
      </trkpt>
      <trkpt lat="50.68638" lon="2.17871">
        <ele>130.25</ele>
        <time>2025-11-08T12:03:42.198Z</time>
      </trkpt>
      <trkpt lat="50.68643" lon="2.17894">
        <ele>129.75</ele>
        <time>2025-11-08T12:03:53.405Z</time>
      </trkpt>
      <trkpt lat="50.6865" lon="2.17931">
        <ele>129.19</ele>
        <time>2025-11-08T12:04:04.630Z</time>
      </trkpt>
      <trkpt lat="50.68654" lon="2.17967">
        <ele>128.68</ele>
        <time>2025-11-08T12:04:15.872Z</time>
      </trkpt>
      <trkpt lat="50.6866" lon="2.17995">
        <ele>128.25</ele>
        <time>2025-11-08T12:04:27.128Z</time>
      </trkpt>
      <trkpt lat="50.6867" lon="2.18021">
        <ele>127.86</ele>
        <time>2025-11-08T12:04:38.398Z</time>
      </trkpt>
      <trkpt lat="50.6868" lon="2.18046">
        <ele>127.59</ele>
        <time>2025-11-08T12:04:49.682Z</time>
      </trkpt>
      <trkpt lat="50.68688" lon="2.18083">
        <ele>127.28</ele>
        <time>2025-11-08T12:05:00.984Z</time>
      </trkpt>
      <trkpt lat="50.68699" lon="2.18118">
        <ele>127.03</ele>
        <time>2025-11-08T12:05:12.305Z</time>
      </trkpt>
      <trkpt lat="50.6871" lon="2.18154">
        <ele>126.82</ele>
        <time>2025-11-08T12:05:23.644Z</time>
      </trkpt>
      <trkpt lat="50.68718" lon="2.18158">
        <ele>126.72</ele>
        <time>2025-11-08T12:05:34.989Z</time>
      </trkpt>
      <trkpt lat="50.68727" lon="2.18175">
        <ele>126.64</ele>
        <time>2025-11-08T12:05:46.345Z</time>
      </trkpt>
      <trkpt lat="50.68737" lon="2.18196">
        <ele>126.59</ele>
        <time>2025-11-08T12:05:57.712Z</time>
      </trkpt>
      <trkpt lat="50.68746" lon="2.18216">
        <ele>126.56</ele>
        <time>2025-11-08T12:06:09.091Z</time>
      </trkpt>
      <trkpt lat="50.68766" lon="2.18255">
        <ele>126.65</ele>
        <time>2025-11-08T12:06:20.493Z</time>
      </trkpt>
      <trkpt lat="50.68777" lon="2.18276">
        <ele>126.8</ele>
        <time>2025-11-08T12:06:31.909Z</time>
      </trkpt>
      <trkpt lat="50.68789" lon="2.18297">
        <ele>126.93</ele>
        <time>2025-11-08T12:06:43.338Z</time>
      </trkpt>
      <trkpt lat="50.68795" lon="2.18328">
        <ele>126.98</ele>
        <time>2025-11-08T12:06:54.781Z</time>
      </trkpt>
      <trkpt lat="50.688" lon="2.18358">
        <ele>127.08</ele>
        <time>2025-11-08T12:07:06.239Z</time>
      </trkpt>
      <trkpt lat="50.68804" lon="2.18383">
        <ele>127.25</ele>
        <time>2025-11-08T12:07:17.709Z</time>
      </trkpt>
      <trkpt lat="50.68814" lon="2.18428">
        <ele>127.57</ele>
        <time>2025-11-08T12:07:29.201Z</time>
      </trkpt>
      <trkpt lat="50.68824" lon="2.18473">
        <ele>127.78</ele>
        <time>2025-11-08T12:07:40.716Z</time>
      </trkpt>
      <trkpt lat="50.68841" lon="2.18491">
        <ele>127.91</ele>
        <time>2025-11-08T12:07:52.246Z</time>
      </trkpt>
      <trkpt lat="50.68856" lon="2.18491">
        <ele>127.98</ele>
        <time>2025-11-08T12:08:03.787Z</time>
      </trkpt>
      <trkpt lat="50.68876" lon="2.18479">
        <ele>128.08</ele>
        <time>2025-11-08T12:08:15.344Z</time>
      </trkpt>
      <trkpt lat="50.68876" lon="2.18479">
        <ele>128.12</ele>
        <time>2025-11-08T12:08:26.901Z</time>
      </trkpt>
      <trkpt lat="50.68901" lon="2.18465">
        <ele>128.15</ele>
        <time>2025-11-08T12:08:38.477Z</time>
      </trkpt>
      <trkpt lat="50.68926" lon="2.18451">
        <ele>128.07</ele>
        <time>2025-11-08T12:08:50.072Z</time>
      </trkpt>
      <trkpt lat="50.6895" lon="2.18437">
        <ele>127.89</ele>
        <time>2025-11-08T12:09:01.686Z</time>
      </trkpt>
      <trkpt lat="50.68974" lon="2.18416">
        <ele>127.76</ele>
        <time>2025-11-08T12:09:13.321Z</time>
      </trkpt>
      <trkpt lat="50.68998" lon="2.18395">
        <ele>127.47</ele>
        <time>2025-11-08T12:09:24.976Z</time>
      </trkpt>
      <trkpt lat="50.69023" lon="2.18374">
        <ele>127.05</ele>
        <time>2025-11-08T12:09:36.651Z</time>
      </trkpt>
      <trkpt lat="50.69047" lon="2.18353">
        <ele>126.62</ele>
        <time>2025-11-08T12:09:48.346Z</time>
      </trkpt>
      <trkpt lat="50.69066" lon="2.18355">
        <ele>126.1</ele>
        <time>2025-11-08T12:10:00.055Z</time>
      </trkpt>
      <trkpt lat="50.69093" lon="2.18352">
        <ele>125.57</ele>
        <time>2025-11-08T12:10:11.784Z</time>
      </trkpt>
      <trkpt lat="50.6912" lon="2.18349">
        <ele>125.08</ele>
        <time>2025-11-08T12:10:23.533Z</time>
      </trkpt>
      <trkpt lat="50.69148" lon="2.1834">
        <ele>124.5</ele>
        <time>2025-11-08T12:10:35.303Z</time>
      </trkpt>
      <trkpt lat="50.69175" lon="2.18332">
        <ele>123.91</ele>
        <time>2025-11-08T12:10:47.094Z</time>
      </trkpt>
      <trkpt lat="50.69203" lon="2.18323">
        <ele>123.21</ele>
        <time>2025-11-08T12:10:58.906Z</time>
      </trkpt>
      <trkpt lat="50.69231" lon="2.18315">
        <ele>122.45</ele>
        <time>2025-11-08T12:11:10.738Z</time>
      </trkpt>
      <trkpt lat="50.69251" lon="2.18308">
        <ele>121.63</ele>
        <time>2025-11-08T12:11:22.585Z</time>
      </trkpt>
      <trkpt lat="50.69273" lon="2.18292">
        <ele>120.73</ele>
        <time>2025-11-08T12:11:34.450Z</time>
      </trkpt>
      <trkpt lat="50.69295" lon="2.18277">
        <ele>119.76</ele>
        <time>2025-11-08T12:11:46.333Z</time>
      </trkpt>
      <trkpt lat="50.69317" lon="2.18261">
        <ele>118.74</ele>
        <time>2025-11-08T12:11:58.233Z</time>
      </trkpt>
      <trkpt lat="50.69326" lon="2.18259">
        <ele>117.59</ele>
        <time>2025-11-08T12:12:10.140Z</time>
      </trkpt>
      <trkpt lat="50.69356" lon="2.18255">
        <ele>116.33</ele>
        <time>2025-11-08T12:12:22.069Z</time>
      </trkpt>
      <trkpt lat="50.69381" lon="2.18262">
        <ele>114.86</ele>
        <time>2025-11-08T12:12:34.017Z</time>
      </trkpt>
      <trkpt lat="50.69407" lon="2.1827">
        <ele>113.26</ele>
        <time>2025-11-08T12:12:45.984Z</time>
      </trkpt>
      <trkpt lat="50.69416" lon="2.18275">
        <ele>111.65</ele>
        <time>2025-11-08T12:12:57.958Z</time>
      </trkpt>
      <trkpt lat="50.69416" lon="2.18275">
        <ele>110</ele>
        <time>2025-11-08T12:13:09.932Z</time>
      </trkpt>
      <trkpt lat="50.69435" lon="2.18289">
        <ele>108.09</ele>
        <time>2025-11-08T12:13:21.922Z</time>
      </trkpt>
      <trkpt lat="50.69454" lon="2.18302">
        <ele>106.1</ele>
        <time>2025-11-08T12:13:33.927Z</time>
      </trkpt>
      <trkpt lat="50.6948" lon="2.18322">
        <ele>103.98</ele>
        <time>2025-11-08T12:13:45.953Z</time>
      </trkpt>
      <trkpt lat="50.69506" lon="2.18342">
        <ele>101.87</ele>
        <time>2025-11-08T12:13:58.000Z</time>
      </trkpt>
      <trkpt lat="50.69532" lon="2.18362">
        <ele>99.67</ele>
        <time>2025-11-08T12:14:10.068Z</time>
      </trkpt>
      <trkpt lat="50.69553" lon="2.18373">
        <ele>97.47</ele>
        <time>2025-11-08T12:14:22.153Z</time>
      </trkpt>
      <trkpt lat="50.6958" lon="2.18388">
        <ele>95.22</ele>
        <time>2025-11-08T12:14:34.259Z</time>
      </trkpt>
      <trkpt lat="50.69607" lon="2.18403">
        <ele>92.89</ele>
        <time>2025-11-08T12:14:46.386Z</time>
      </trkpt>
      <trkpt lat="50.69624" lon="2.1842">
        <ele>90.61</ele>
        <time>2025-11-08T12:14:58.528Z</time>
      </trkpt>
      <trkpt lat="50.6965" lon="2.18446">
        <ele>88.31</ele>
        <time>2025-11-08T12:15:10.692Z</time>
      </trkpt>
      <trkpt lat="50.69665" lon="2.18461">
        <ele>86.1</ele>
        <time>2025-11-08T12:15:22.869Z</time>
      </trkpt>
      <trkpt lat="50.69685" lon="2.18481">
        <ele>83.83</ele>
        <time>2025-11-08T12:15:35.064Z</time>
      </trkpt>
      <trkpt lat="50.69705" lon="2.18501">
        <ele>81.53</ele>
        <time>2025-11-08T12:15:47.276Z</time>
      </trkpt>
      <trkpt lat="50.69725" lon="2.18521">
        <ele>79.19</ele>
        <time>2025-11-08T12:15:59.505Z</time>
      </trkpt>
      <trkpt lat="50.69747" lon="2.18535">
        <ele>77</ele>
        <time>2025-11-08T12:16:11.752Z</time>
      </trkpt>
      <trkpt lat="50.69769" lon="2.18549">
        <ele>74.89</ele>
        <time>2025-11-08T12:16:24.016Z</time>
      </trkpt>
      <trkpt lat="50.69791" lon="2.18563">
        <ele>72.81</ele>
        <time>2025-11-08T12:16:36.298Z</time>
      </trkpt>
      <trkpt lat="50.69813" lon="2.18576">
        <ele>70.74</ele>
        <time>2025-11-08T12:16:48.597Z</time>
      </trkpt>
      <trkpt lat="50.69836" lon="2.18578">
        <ele>68.69</ele>
        <time>2025-11-08T12:17:00.913Z</time>
      </trkpt>
      <trkpt lat="50.6986" lon="2.18579">
        <ele>66.66</ele>
        <time>2025-11-08T12:17:13.247Z</time>
      </trkpt>
      <trkpt lat="50.69878" lon="2.18583">
        <ele>64.78</ele>
        <time>2025-11-08T12:17:25.594Z</time>
      </trkpt>
      <trkpt lat="50.69896" lon="2.18587">
        <ele>63</ele>
        <time>2025-11-08T12:17:37.955Z</time>
      </trkpt>
      <trkpt lat="50.69922" lon="2.18598">
        <ele>61.27</ele>
        <time>2025-11-08T12:17:50.335Z</time>
      </trkpt>
      <trkpt lat="50.69948" lon="2.18609">
        <ele>59.69</ele>
        <time>2025-11-08T12:18:02.735Z</time>
      </trkpt>
      <trkpt lat="50.69948" lon="2.18609">
        <ele>58.18</ele>
        <time>2025-11-08T12:18:15.135Z</time>
      </trkpt>
      <trkpt lat="50.69974" lon="2.18632">
        <ele>56.69</ele>
        <time>2025-11-08T12:18:27.557Z</time>
      </trkpt>
      <trkpt lat="50.70002" lon="2.18654">
        <ele>55.14</ele>
        <time>2025-11-08T12:18:40.002Z</time>
      </trkpt>
      <trkpt lat="50.70023" lon="2.18682">
        <ele>53.75</ele>
        <time>2025-11-08T12:18:52.467Z</time>
      </trkpt>
      <trkpt lat="50.7004" lon="2.18712">
        <ele>52.49</ele>
        <time>2025-11-08T12:19:04.951Z</time>
      </trkpt>
      <trkpt lat="50.70057" lon="2.18742">
        <ele>51.31</ele>
        <time>2025-11-08T12:19:17.454Z</time>
      </trkpt>
      <trkpt lat="50.70075" lon="2.18772">
        <ele>50.17</ele>
        <time>2025-11-08T12:19:29.976Z</time>
      </trkpt>
      <trkpt lat="50.70095" lon="2.18797">
        <ele>49.1</ele>
        <time>2025-11-08T12:19:42.517Z</time>
      </trkpt>
      <trkpt lat="50.70115" lon="2.18823">
        <ele>48</ele>
        <time>2025-11-08T12:19:55.077Z</time>
      </trkpt>
      <trkpt lat="50.70135" lon="2.18849">
        <ele>46.98</ele>
        <time>2025-11-08T12:20:07.656Z</time>
      </trkpt>
      <trkpt lat="50.70152" lon="2.18879">
        <ele>46.09</ele>
        <time>2025-11-08T12:20:20.253Z</time>
      </trkpt>
      <trkpt lat="50.70169" lon="2.18909">
        <ele>45.31</ele>
        <time>2025-11-08T12:20:32.869Z</time>
      </trkpt>
      <trkpt lat="50.70175" lon="2.18892">
        <ele>44.46</ele>
        <time>2025-11-08T12:20:45.494Z</time>
      </trkpt>
      <trkpt lat="50.70195" lon="2.18883">
        <ele>43.67</ele>
        <time>2025-11-08T12:20:58.134Z</time>
      </trkpt>
      <trkpt lat="50.70211" lon="2.18879">
        <ele>43.02</ele>
        <time>2025-11-08T12:21:10.786Z</time>
      </trkpt>
      <trkpt lat="50.70227" lon="2.18875">
        <ele>42.45</ele>
        <time>2025-11-08T12:21:23.450Z</time>
      </trkpt>
      <trkpt lat="50.70243" lon="2.18877">
        <ele>41.94</ele>
        <time>2025-11-08T12:21:36.126Z</time>
      </trkpt>
      <trkpt lat="50.70259" lon="2.18879">
        <ele>41.49</ele>
        <time>2025-11-08T12:21:48.814Z</time>
      </trkpt>
      <trkpt lat="50.70261" lon="2.18833">
        <ele>41.24</ele>
        <time>2025-11-08T12:22:01.524Z</time>
      </trkpt>
      <trkpt lat="50.70263" lon="2.18786">
        <ele>41.04</ele>
        <time>2025-11-08T12:22:14.255Z</time>
      </trkpt>
      <trkpt lat="50.70266" lon="2.1874">
        <ele>40.88</ele>
        <time>2025-11-08T12:22:27.008Z</time>
      </trkpt>
      <trkpt lat="50.70268" lon="2.18694">
        <ele>40.73</ele>
        <time>2025-11-08T12:22:39.782Z</time>
      </trkpt>
      <trkpt lat="50.70272" lon="2.18662">
        <ele>40.64</ele>
        <time>2025-11-08T12:22:52.572Z</time>
      </trkpt>
      <trkpt lat="50.70276" lon="2.1863">
        <ele>40.61</ele>
        <time>2025-11-08T12:23:05.377Z</time>
      </trkpt>
      <trkpt lat="50.70283" lon="2.18583">
        <ele>40.6</ele>
        <time>2025-11-08T12:23:18.204Z</time>
      </trkpt>
      <trkpt lat="50.70291" lon="2.18538">
        <ele>40.74</ele>
        <time>2025-11-08T12:23:31.053Z</time>
      </trkpt>
      <trkpt lat="50.70299" lon="2.18493">
        <ele>40.97</ele>
        <time>2025-11-08T12:23:43.924Z</time>
      </trkpt>
      <trkpt lat="50.70307" lon="2.18447">
        <ele>41.26</ele>
        <time>2025-11-08T12:23:56.817Z</time>
      </trkpt>
      <trkpt lat="50.70315" lon="2.18402">
        <ele>41.59</ele>
        <time>2025-11-08T12:24:09.732Z</time>
      </trkpt>
      <trkpt lat="50.70323" lon="2.18357">
        <ele>42.08</ele>
        <time>2025-11-08T12:24:22.669Z</time>
      </trkpt>
      <trkpt lat="50.70331" lon="2.18312">
        <ele>42.75</ele>
        <time>2025-11-08T12:24:35.628Z</time>
      </trkpt>
      <trkpt lat="50.70339" lon="2.18267">
        <ele>43.44</ele>
        <time>2025-11-08T12:24:48.608Z</time>
      </trkpt>
      <trkpt lat="50.70347" lon="2.18221">
        <ele>44.28</ele>
        <time>2025-11-08T12:25:01.610Z</time>
      </trkpt>
      <trkpt lat="50.70355" lon="2.18176">
        <ele>45.17</ele>
        <time>2025-11-08T12:25:14.634Z</time>
      </trkpt>
      <trkpt lat="50.70363" lon="2.18131">
        <ele>46.24</ele>
        <time>2025-11-08T12:25:27.680Z</time>
      </trkpt>
      <trkpt lat="50.70371" lon="2.18087">
        <ele>47.41</ele>
        <time>2025-11-08T12:25:40.747Z</time>
      </trkpt>
      <trkpt lat="50.7035" lon="2.18064">
        <ele>48.79</ele>
        <time>2025-11-08T12:25:53.833Z</time>
      </trkpt>
      <trkpt lat="50.70329" lon="2.18041">
        <ele>50.3</ele>
        <time>2025-11-08T12:26:06.938Z</time>
      </trkpt>
      <trkpt lat="50.70308" lon="2.18019">
        <ele>51.97</ele>
        <time>2025-11-08T12:26:20.061Z</time>
      </trkpt>
      <trkpt lat="50.70292" lon="2.18011">
        <ele>53.64</ele>
        <time>2025-11-08T12:26:33.196Z</time>
      </trkpt>
      <trkpt lat="50.70276" lon="2.18004">
        <ele>55.42</ele>
        <time>2025-11-08T12:26:46.344Z</time>
      </trkpt>
      <trkpt lat="50.70261" lon="2.17995">
        <ele>57.29</ele>
        <time>2025-11-08T12:26:59.503Z</time>
      </trkpt>
      <trkpt lat="50.70248" lon="2.17991">
        <ele>59.21</ele>
        <time>2025-11-08T12:27:12.672Z</time>
      </trkpt>
      <trkpt lat="50.70231" lon="2.17984">
        <ele>61.21</ele>
        <time>2025-11-08T12:27:25.854Z</time>
      </trkpt>
      <trkpt lat="50.70201" lon="2.17978">
        <ele>63.37</ele>
        <time>2025-11-08T12:27:39.058Z</time>
      </trkpt>
      <trkpt lat="50.70175" lon="2.17982">
        <ele>65.57</ele>
        <time>2025-11-08T12:27:52.281Z</time>
      </trkpt>
      <trkpt lat="50.70152" lon="2.17995">
        <ele>67.79</ele>
        <time>2025-11-08T12:28:05.523Z</time>
      </trkpt>
      <trkpt lat="50.70141" lon="2.18001">
        <ele>69.88</ele>
        <time>2025-11-08T12:28:18.773Z</time>
      </trkpt>
      <trkpt lat="50.7013" lon="2.18004">
        <ele>71.93</ele>
        <time>2025-11-08T12:28:32.031Z</time>
      </trkpt>
      <trkpt lat="50.70117" lon="2.18006">
        <ele>74.01</ele>
        <time>2025-11-08T12:28:45.299Z</time>
      </trkpt>
      <trkpt lat="50.70105" lon="2.18008">
        <ele>76.07</ele>
        <time>2025-11-08T12:28:58.576Z</time>
      </trkpt>
      <trkpt lat="50.70083" lon="2.18004">
        <ele>78.09</ele>
        <time>2025-11-08T12:29:11.869Z</time>
      </trkpt>
      <trkpt lat="50.7006" lon="2.17991">
        <ele>80.12</ele>
        <time>2025-11-08T12:29:25.180Z</time>
      </trkpt>
      <trkpt lat="50.70038" lon="2.17976">
        <ele>82.15</ele>
        <time>2025-11-08T12:29:38.509Z</time>
      </trkpt>
      <trkpt lat="50.70017" lon="2.17956">
        <ele>84.15</ele>
        <time>2025-11-08T12:29:51.856Z</time>
      </trkpt>
      <trkpt lat="50.69999" lon="2.17939">
        <ele>86.08</ele>
        <time>2025-11-08T12:30:05.218Z</time>
      </trkpt>
      <trkpt lat="50.69976" lon="2.17916">
        <ele>88</ele>
        <time>2025-11-08T12:30:18.600Z</time>
      </trkpt>
      <trkpt lat="50.69957" lon="2.17896">
        <ele>89.77</ele>
        <time>2025-11-08T12:30:31.999Z</time>
      </trkpt>
      <trkpt lat="50.69937" lon="2.17881">
        <ele>91.5</ele>
        <time>2025-11-08T12:30:45.414Z</time>
      </trkpt>
      <trkpt lat="50.6992" lon="2.17862">
        <ele>93.19</ele>
        <time>2025-11-08T12:30:58.844Z</time>
      </trkpt>
      <trkpt lat="50.69907" lon="2.17847">
        <ele>94.86</ele>
        <time>2025-11-08T12:31:12.286Z</time>
      </trkpt>
      <trkpt lat="50.69894" lon="2.17832">
        <ele>96.48</ele>
        <time>2025-11-08T12:31:25.740Z</time>
      </trkpt>
      <trkpt lat="50.69877" lon="2.1781">
        <ele>98.16</ele>
        <time>2025-11-08T12:31:39.210Z</time>
      </trkpt>
      <trkpt lat="50.6986" lon="2.17789">
        <ele>99.8</ele>
        <time>2025-11-08T12:31:52.696Z</time>
      </trkpt>
      <trkpt lat="50.69849" lon="2.17771">
        <ele>101.32</ele>
        <time>2025-11-08T12:32:06.194Z</time>
      </trkpt>
      <trkpt lat="50.69839" lon="2.17752">
        <ele>102.77</ele>
        <time>2025-11-08T12:32:19.703Z</time>
      </trkpt>
      <trkpt lat="50.69813" lon="2.17742">
        <ele>104.29</ele>
        <time>2025-11-08T12:32:33.231Z</time>
      </trkpt>
      <trkpt lat="50.69788" lon="2.17731">
        <ele>105.75</ele>
        <time>2025-11-08T12:32:46.778Z</time>
      </trkpt>
      <trkpt lat="50.69763" lon="2.1772">
        <ele>107.14</ele>
        <time>2025-11-08T12:33:00.344Z</time>
      </trkpt>
      <trkpt lat="50.69742" lon="2.17702">
        <ele>108.49</ele>
        <time>2025-11-08T12:33:13.928Z</time>
      </trkpt>
      <trkpt lat="50.69721" lon="2.17684">
        <ele>109.84</ele>
        <time>2025-11-08T12:33:27.530Z</time>
      </trkpt>
      <trkpt lat="50.69701" lon="2.17654">
        <ele>111.2</ele>
        <time>2025-11-08T12:33:41.152Z</time>
      </trkpt>
      <trkpt lat="50.69682" lon="2.17624">
        <ele>112.55</ele>
        <time>2025-11-08T12:33:54.794Z</time>
      </trkpt>
      <trkpt lat="50.69663" lon="2.17602">
        <ele>113.81</ele>
        <time>2025-11-08T12:34:08.453Z</time>
      </trkpt>
      <trkpt lat="50.69645" lon="2.17581">
        <ele>115.06</ele>
        <time>2025-11-08T12:34:22.129Z</time>
      </trkpt>
      <trkpt lat="50.69626" lon="2.17559">
        <ele>116.27</ele>
        <time>2025-11-08T12:34:35.822Z</time>
      </trkpt>
      <trkpt lat="50.69601" lon="2.17537">
        <ele>117.41</ele>
        <time>2025-11-08T12:34:49.536Z</time>
      </trkpt>
      <trkpt lat="50.69577" lon="2.17514">
        <ele>118.42</ele>
        <time>2025-11-08T12:35:03.271Z</time>
      </trkpt>
      <trkpt lat="50.69552" lon="2.175">
        <ele>119.42</ele>
        <time>2025-11-08T12:35:17.025Z</time>
      </trkpt>
      <trkpt lat="50.69527" lon="2.17486">
        <ele>120.44</ele>
        <time>2025-11-08T12:35:30.798Z</time>
      </trkpt>
      <trkpt lat="50.69508" lon="2.17469">
        <ele>121.38</ele>
        <time>2025-11-08T12:35:44.587Z</time>
      </trkpt>
      <trkpt lat="50.69489" lon="2.17452">
        <ele>122.26</ele>
        <time>2025-11-08T12:35:58.393Z</time>
      </trkpt>
      <trkpt lat="50.6948" lon="2.17427">
        <ele>123.04</ele>
        <time>2025-11-08T12:36:12.212Z</time>
      </trkpt>
      <trkpt lat="50.69472" lon="2.17403">
        <ele>123.74</ele>
        <time>2025-11-08T12:36:26.044Z</time>
      </trkpt>
      <trkpt lat="50.69452" lon="2.17375">
        <ele>124.38</ele>
        <time>2025-11-08T12:36:39.895Z</time>
      </trkpt>
      <trkpt lat="50.69438" lon="2.17347">
        <ele>124.82</ele>
        <time>2025-11-08T12:36:53.763Z</time>
      </trkpt>
      <trkpt lat="50.69424" lon="2.17319">
        <ele>125.05</ele>
        <time>2025-11-08T12:37:07.647Z</time>
      </trkpt>
      <trkpt lat="50.69409" lon="2.17295">
        <ele>125.09</ele>
        <time>2025-11-08T12:37:21.547Z</time>
      </trkpt>
      <trkpt lat="50.69394" lon="2.17271">
        <ele>125</ele>
        <time>2025-11-08T12:37:35.463Z</time>
      </trkpt>
      <trkpt lat="50.69378" lon="2.17244">
        <ele>124.68</ele>
        <time>2025-11-08T12:37:49.396Z</time>
      </trkpt>
      <trkpt lat="50.69361" lon="2.17217">
        <ele>124.35</ele>
        <time>2025-11-08T12:38:03.347Z</time>
      </trkpt>
      <trkpt lat="50.69345" lon="2.1719">
        <ele>123.94</ele>
        <time>2025-11-08T12:38:17.315Z</time>
      </trkpt>
      <trkpt lat="50.69334" lon="2.17158">
        <ele>123.27</ele>
        <time>2025-11-08T12:38:31.300Z</time>
      </trkpt>
      <trkpt lat="50.69324" lon="2.17126">
        <ele>122.51</ele>
        <time>2025-11-08T12:38:45.302Z</time>
      </trkpt>
      <trkpt lat="50.69307" lon="2.17091">
        <ele>121.79</ele>
        <time>2025-11-08T12:38:59.324Z</time>
      </trkpt>
      <trkpt lat="50.6929" lon="2.17055">
        <ele>120.99</ele>
        <time>2025-11-08T12:39:13.367Z</time>
      </trkpt>
      <trkpt lat="50.69273" lon="2.1702">
        <ele>119.97</ele>
        <time>2025-11-08T12:39:27.431Z</time>
      </trkpt>
      <trkpt lat="50.69256" lon="2.16985">
        <ele>118.78</ele>
        <time>2025-11-08T12:39:41.515Z</time>
      </trkpt>
      <trkpt lat="50.6924" lon="2.1695">
        <ele>117.38</ele>
        <time>2025-11-08T12:39:55.619Z</time>
      </trkpt>
      <trkpt lat="50.69226" lon="2.16934">
        <ele>116</ele>
        <time>2025-11-08T12:40:09.736Z</time>
      </trkpt>
      <trkpt lat="50.69212" lon="2.16918">
        <ele>114.56</ele>
        <time>2025-11-08T12:40:23.866Z</time>
      </trkpt>
      <trkpt lat="50.69233" lon="2.16926">
        <ele>112.69</ele>
        <time>2025-11-08T12:40:38.012Z</time>
      </trkpt>
      <trkpt lat="50.69255" lon="2.16933">
        <ele>110.79</ele>
        <time>2025-11-08T12:40:52.174Z</time>
      </trkpt>
      <trkpt lat="50.69276" lon="2.16941">
        <ele>108.81</ele>
        <time>2025-11-08T12:41:06.352Z</time>
      </trkpt>
      <trkpt lat="50.69295" lon="2.16957">
        <ele>106.84</ele>
        <time>2025-11-08T12:41:20.546Z</time>
      </trkpt>
      <trkpt lat="50.69313" lon="2.16974">
        <ele>104.83</ele>
        <time>2025-11-08T12:41:34.755Z</time>
      </trkpt>
      <trkpt lat="50.69334" lon="2.16993">
        <ele>102.84</ele>
        <time>2025-11-08T12:41:48.982Z</time>
      </trkpt>
      <trkpt lat="50.69356" lon="2.17012">
        <ele>100.92</ele>
        <time>2025-11-08T12:42:03.227Z</time>
      </trkpt>
      <trkpt lat="50.69377" lon="2.17033">
        <ele>99.02</ele>
        <time>2025-11-08T12:42:17.491Z</time>
      </trkpt>
      <trkpt lat="50.69399" lon="2.17053">
        <ele>97.13</ele>
        <time>2025-11-08T12:42:31.773Z</time>
      </trkpt>
      <trkpt lat="50.69414" lon="2.17066">
        <ele>95.21</ele>
        <time>2025-11-08T12:42:46.068Z</time>
      </trkpt>
      <trkpt lat="50.69429" lon="2.17079">
        <ele>93.35</ele>
        <time>2025-11-08T12:43:00.375Z</time>
      </trkpt>
      <trkpt lat="50.69447" lon="2.1709">
        <ele>91.51</ele>
        <time>2025-11-08T12:43:14.697Z</time>
      </trkpt>
      <trkpt lat="50.69465" lon="2.17102">
        <ele>89.76</ele>
        <time>2025-11-08T12:43:29.033Z</time>
      </trkpt>
      <trkpt lat="50.69486" lon="2.17113">
        <ele>87.96</ele>
        <time>2025-11-08T12:43:43.385Z</time>
      </trkpt>
      <trkpt lat="50.69507" lon="2.17124">
        <ele>86.12</ele>
        <time>2025-11-08T12:43:57.753Z</time>
      </trkpt>
      <trkpt lat="50.69527" lon="2.17134">
        <ele>84.31</ele>
        <time>2025-11-08T12:44:12.137Z</time>
      </trkpt>
      <trkpt lat="50.69547" lon="2.17145">
        <ele>82.63</ele>
        <time>2025-11-08T12:44:26.536Z</time>
      </trkpt>
      <trkpt lat="50.69566" lon="2.17156">
        <ele>81.07</ele>
        <time>2025-11-08T12:44:40.950Z</time>
      </trkpt>
      <trkpt lat="50.69594" lon="2.17166">
        <ele>79.56</ele>
        <time>2025-11-08T12:44:55.386Z</time>
      </trkpt>
      <trkpt lat="50.69623" lon="2.17176">
        <ele>78.01</ele>
        <time>2025-11-08T12:45:09.843Z</time>
      </trkpt>
      <trkpt lat="50.69651" lon="2.17187">
        <ele>76.65</ele>
        <time>2025-11-08T12:45:24.321Z</time>
      </trkpt>
      <trkpt lat="50.6968" lon="2.17197">
        <ele>75.39</ele>
        <time>2025-11-08T12:45:38.821Z</time>
      </trkpt>
      <trkpt lat="50.69708" lon="2.17207">
        <ele>74.17</ele>
        <time>2025-11-08T12:45:53.342Z</time>
      </trkpt>
      <trkpt lat="50.69736" lon="2.17217">
        <ele>72.97</ele>
        <time>2025-11-08T12:46:07.885Z</time>
      </trkpt>
      <trkpt lat="50.69765" lon="2.17228">
        <ele>71.83</ele>
        <time>2025-11-08T12:46:22.449Z</time>
      </trkpt>
      <trkpt lat="50.69793" lon="2.17238">
        <ele>70.8</ele>
        <time>2025-11-08T12:46:37.034Z</time>
      </trkpt>
      <trkpt lat="50.69821" lon="2.17248">
        <ele>69.88</ele>
        <time>2025-11-08T12:46:51.641Z</time>
      </trkpt>
      <trkpt lat="50.69832" lon="2.17252">
        <ele>69.13</ele>
        <time>2025-11-08T12:47:06.256Z</time>
      </trkpt>
      <trkpt lat="50.69846" lon="2.17266">
        <ele>68.46</ele>
        <time>2025-11-08T12:47:20.883Z</time>
      </trkpt>
      <trkpt lat="50.6986" lon="2.1728">
        <ele>67.8</ele>
        <time>2025-11-08T12:47:35.522Z</time>
      </trkpt>
      <trkpt lat="50.69877" lon="2.173">
        <ele>67.16</ele>
        <time>2025-11-08T12:47:50.177Z</time>
      </trkpt>
      <trkpt lat="50.69894" lon="2.17319">
        <ele>66.51</ele>
        <time>2025-11-08T12:48:04.847Z</time>
      </trkpt>
      <trkpt lat="50.69915" lon="2.17345">
        <ele>65.7</ele>
        <time>2025-11-08T12:48:19.536Z</time>
      </trkpt>
      <trkpt lat="50.69936" lon="2.17371">
        <ele>64.87</ele>
        <time>2025-11-08T12:48:34.245Z</time>
      </trkpt>
      <trkpt lat="50.69957" lon="2.17396">
        <ele>63.99</ele>
        <time>2025-11-08T12:48:48.973Z</time>
      </trkpt>
      <trkpt lat="50.69978" lon="2.17422">
        <ele>63.01</ele>
        <time>2025-11-08T12:49:03.721Z</time>
      </trkpt>
      <trkpt lat="50.69993" lon="2.17441">
        <ele>62.03</ele>
        <time>2025-11-08T12:49:18.483Z</time>
      </trkpt>
      <trkpt lat="50.70017" lon="2.17469">
        <ele>60.98</ele>
        <time>2025-11-08T12:49:33.267Z</time>
      </trkpt>
      <trkpt lat="50.7004" lon="2.17496">
        <ele>59.96</ele>
        <time>2025-11-08T12:49:48.072Z</time>
      </trkpt>
      <trkpt lat="50.70064" lon="2.17523">
        <ele>58.99</ele>
        <time>2025-11-08T12:50:02.899Z</time>
      </trkpt>
      <trkpt lat="50.70088" lon="2.1755">
        <ele>58.07</ele>
        <time>2025-11-08T12:50:17.747Z</time>
      </trkpt>
      <trkpt lat="50.70111" lon="2.17577">
        <ele>57.09</ele>
        <time>2025-11-08T12:50:32.617Z</time>
      </trkpt>
      <trkpt lat="50.70135" lon="2.17604">
        <ele>56.16</ele>
        <time>2025-11-08T12:50:47.508Z</time>
      </trkpt>
      <trkpt lat="50.70159" lon="2.17629">
        <ele>55.19</ele>
        <time>2025-11-08T12:51:02.421Z</time>
      </trkpt>
      <trkpt lat="50.70184" lon="2.17654">
        <ele>54.29</ele>
        <time>2025-11-08T12:51:17.355Z</time>
      </trkpt>
      <trkpt lat="50.70207" lon="2.1768">
        <ele>53.36</ele>
        <time>2025-11-08T12:51:32.310Z</time>
      </trkpt>
      <trkpt lat="50.7023" lon="2.17705">
        <ele>52.29</ele>
        <time>2025-11-08T12:51:47.286Z</time>
      </trkpt>
      <trkpt lat="50.70254" lon="2.17731">
        <ele>51.28</ele>
        <time>2025-11-08T12:52:02.283Z</time>
      </trkpt>
      <trkpt lat="50.70277" lon="2.17757">
        <ele>50.37</ele>
        <time>2025-11-08T12:52:17.300Z</time>
      </trkpt>
      <trkpt lat="50.703" lon="2.17782">
        <ele>49.49</ele>
        <time>2025-11-08T12:52:32.338Z</time>
      </trkpt>
      <trkpt lat="50.703" lon="2.17782">
        <ele>48.68</ele>
        <time>2025-11-08T12:52:47.376Z</time>
      </trkpt>
      <trkpt lat="50.70321" lon="2.17807">
        <ele>47.83</ele>
        <time>2025-11-08T12:53:02.433Z</time>
      </trkpt>
      <trkpt lat="50.70342" lon="2.17831">
        <ele>47.01</ele>
        <time>2025-11-08T12:53:17.509Z</time>
      </trkpt>
      <trkpt lat="50.70363" lon="2.17855">
        <ele>46.18</ele>
        <time>2025-11-08T12:53:32.604Z</time>
      </trkpt>
      <trkpt lat="50.70384" lon="2.17879">
        <ele>45.4</ele>
        <time>2025-11-08T12:53:47.718Z</time>
      </trkpt>
      <trkpt lat="50.70384" lon="2.17879">
        <ele>44.88</ele>
        <time>2025-11-08T12:54:02.832Z</time>
      </trkpt>
      <trkpt lat="50.70392" lon="2.17888">
        <ele>44.35</ele>
        <time>2025-11-08T12:54:17.954Z</time>
      </trkpt>
      <trkpt lat="50.70399" lon="2.17903">
        <ele>43.93</ele>
        <time>2025-11-08T12:54:33.084Z</time>
      </trkpt>
      <trkpt lat="50.70409" lon="2.17922">
        <ele>43.16</ele>
        <time>2025-11-08T12:54:48.226Z</time>
      </trkpt>
      <trkpt lat="50.70414" lon="2.17933">
        <ele>43.23</ele>
        <time>2025-11-08T12:55:03.374Z</time>
      </trkpt>
      <trkpt lat="50.70424" lon="2.17961">
        <ele>42.96</ele>
        <time>2025-11-08T12:55:18.537Z</time>
      </trkpt>
      <trkpt lat="50.70435" lon="2.17988">
        <ele>43.3</ele>
        <time>2025-11-08T12:55:33.716Z</time>
      </trkpt>
      <trkpt lat="50.70441" lon="2.18012">
        <ele>43.21</ele>
        <time>2025-11-08T12:55:48.906Z</time>
      </trkpt>
      <trkpt lat="50.70441" lon="2.18039">
        <ele>42.05</ele>
        <time>2025-11-08T12:56:04.109Z</time>
      </trkpt>
      <trkpt lat="50.70441" lon="2.18066">
        <ele>42.73</ele>
        <time>2025-11-08T12:56:19.324Z</time>
      </trkpt>
      <trkpt lat="50.70438" lon="2.18095">
        <ele>41.06</ele>
        <time>2025-11-08T12:56:34.553Z</time>
      </trkpt>
      <trkpt lat="50.70435" lon="2.18124">
        <ele>41.67</ele>
        <time>2025-11-08T12:56:49.796Z</time>
      </trkpt>
      <trkpt lat="50.70446" lon="2.18134">
        <ele>40.94</ele>
        <time>2025-11-08T12:57:05.048Z</time>
      </trkpt>
      <trkpt lat="50.70457" lon="2.18179">
        <ele>40.11</ele>
        <time>2025-11-08T12:57:20.323Z</time>
      </trkpt>
      <trkpt lat="50.70481" lon="2.18203">
        <ele>37.91</ele>
        <time>2025-11-08T12:57:35.619Z</time>
      </trkpt>
      <trkpt lat="50.70505" lon="2.18227">
        <ele>36.98</ele>
        <time>2025-11-08T12:57:50.936Z</time>
      </trkpt>
      <trkpt lat="50.70529" lon="2.1825">
        <ele>37.4</ele>
        <time>2025-11-08T12:58:06.274Z</time>
      </trkpt>
      <trkpt lat="50.70544" lon="2.18265">
        <ele>36.55</ele>
        <time>2025-11-08T12:58:21.625Z</time>
      </trkpt>
      <trkpt lat="50.70557" lon="2.18271">
        <ele>34.67</ele>
        <time>2025-11-08T12:58:36.985Z</time>
      </trkpt>
    </trkseg>
  </trk>
</gpx>